Observation data for Coyanosa on 01/16/2019      Previous  Date  Next       Current Mesonet Observations  Soil Data  Daily Summary Page  Observations in Plain Language
KCO1 160600Z 10002KT 04/04 A3017 RMK A01 T00400037  RH  098%=      5-min Rain = 0
KCO1 160601Z 10002KT 04/04 A3017 RMK A01 T00410039  RH  098%=      5-min Rain = 0
KCO1 160602Z 10002KT 04/04 A3017 RMK A01 T00420040  RH  098%=      5-min Rain = 0
KCO1 160603Z 10002KT 04/04 A3017 RMK A01 T00430040  RH  098%=      5-min Rain = 0
KCO1 160604Z 09002KT 04/04 A3017 RMK A01 T00430041  RH  098%=      5-min Rain = 0
KCO1 160605Z 09002KT 04/04 A3017 RMK A01 T00420040  RH  098%=      5-min Rain = 0
KCO1 160606Z 09002KT 04/04 A3017 RMK A01 T00410038  RH  098%=      5-min Rain = 0
KCO1 160607Z 09002KT 04/04 A3017 RMK A01 T00400037  RH  098%=      5-min Rain = 0
KCO1 160608Z 09002KT 04/04 A3017 RMK A01 T00390036  RH  098%=      5-min Rain = 0
KCO1 160609Z 09002KT 04/04 A3017 RMK A01 T00390035  RH  098%=      5-min Rain = 0
KCO1 160610Z 09002KT 04/04 A3016 RMK A01 T00390035  RH  098%=      5-min Rain = 0
KCO1 160611Z 09002KT 04/03 A3016 RMK A01 T00380034  RH  098%=      5-min Rain = 0
KCO1 160612Z 09002KT 04/03 A3016 RMK A01 T00370033  RH  098%=      5-min Rain = 0
KCO1 160613Z 10002KT 04/03 A3016 RMK A01 T00360032  RH  098%=      5-min Rain = 0
KCO1 160614Z 10002KT 04/03 A3016 RMK A01 T00350031  RH  097%=      5-min Rain = 0
KCO1 160615Z 10002KT 03/03 A3016 RMK A01 T00340031  RH  098%=      5-min Rain = 0
KCO1 160616Z 10003KT 04/03 A3016 RMK A01 T00350032  RH  098%=      5-min Rain = 0
KCO1 160617Z 10003KT 04/03 A3016 RMK A01 T00360033  RH  098%=      5-min Rain = 0
KCO1 160618Z 10003KT 04/03 A3016 RMK A01 T00370034  RH  098%=      5-min Rain = 0
KCO1 160619Z 10003KT 04/03 A3016 RMK A01 T00370034  RH  098%=      5-min Rain = 0
KCO1 160620Z 10003KT 04/03 A3016 RMK A01 T00360033  RH  098%=      5-min Rain = 0
KCO1 160621Z 11003KT 04/03 A3016 RMK A01 T00350032  RH  098%=      5-min Rain = 0
KCO1 160622Z 11003KT 04/03 A3016 RMK A01 T00360032  RH  098%=      5-min Rain = 0
KCO1 160623Z 11003KT 04/03 A3016 RMK A01 T00350032  RH  098%=      5-min Rain = 0
KCO1 160624Z 11003KT 04/03 A3016 RMK A01 T00360033  RH  098%=      5-min Rain = 0
KCO1 160625Z 11003KT 04/03 A3015 RMK A01 T00360033  RH  098%=      5-min Rain = 0
KCO1 160626Z 11003KT 04/03 A3015 RMK A01 T00360033  RH  098%=      5-min Rain = 0
KCO1 160627Z 11002KT 04/03 A3015 RMK A01 T00360033  RH  098%=      5-min Rain = 0
KCO1 160628Z 11002KT 04/03 A3015 RMK A01 T00350032  RH  098%=      5-min Rain = 0
KCO1 160629Z 11003KT 03/03 A3016 RMK A01 T00340031  RH  098%=      5-min Rain = 0
KCO1 160630Z 11003KT 03/03 A3016 RMK A01 T00340030  RH  098%=      5-min Rain = 0
KCO1 160631Z 12002KT 03/03 A3016 RMK A01 T00330030  RH  098%=      5-min Rain = 0
KCO1 160632Z 12002KT 03/03 A3016 RMK A01 T00330030  RH  098%=      5-min Rain = 0
KCO1 160633Z 12001KT 03/03 A3016 RMK A01 T00330030  RH  098%=      5-min Rain = 0
KCO1 160634Z 12000KT 03/03 A3016 RMK A01 T00340031  RH  098%=      5-min Rain = 0
KCO1 160635Z 00000KT 04/03 A3016 RMK A01 T00350032  RH  098%=      5-min Rain = 0
KCO1 160636Z 12001KT 04/03 A3016 RMK A01 T00360033  RH  098%=      5-min Rain = 0
KCO1 160637Z 15000KT 04/03 A3016 RMK A01 T00360034  RH  098%=      5-min Rain = 0
KCO1 160638Z 16001KT 04/03 A3016 RMK A01 T00360033  RH  098%=      5-min Rain = 0
KCO1 160639Z 16001KT 04/03 A3016 RMK A01 T00350032  RH  098%=      5-min Rain = 0
KCO1 160640Z 19002KT 03/03 A3016 RMK A01 T00340032  RH  098%=      5-min Rain = 0
KCO1 160641Z 18001KT 04/03 A3016 RMK A01 T00350032  RH  098%=      5-min Rain = 0
KCO1 160642Z 20001KT 03/03 A3016 RMK A01 T00340032  RH  098%=      5-min Rain = 0
KCO1 160643Z 22001KT 04/03 A3016 RMK A01 T00350033  RH  099%=      5-min Rain = 0
KCO1 160644Z 23002KT 04/03 A3016 RMK A01 T00360034  RH  099%=      5-min Rain = 0
KCO1 160645Z 23002KT 04/03 A3016 RMK A01 T00360034  RH  099%=      5-min Rain = 0
KCO1 160646Z 23001KT 04/03 A3016 RMK A01 T00360034  RH  099%=      5-min Rain = 0
KCO1 160647Z 23001KT 04/03 A3016 RMK A01 T00360033  RH  099%=      5-min Rain = 0
KCO1 160648Z 23001KT 04/03 A3016 RMK A01 T00350033  RH  098%=      5-min Rain = 0
KCO1 160649Z 25001KT 03/03 A3016 RMK A01 T00340032  RH  098%=      5-min Rain = 0
KCO1 160650Z 27000KT 03/03 A3016 RMK A01 T00330031  RH  098%=      5-min Rain = 0
KCO1 160651Z 27000KT 03/03 A3016 RMK A01 T00330031  RH  098%=      5-min Rain = 0
KCO1 160652Z 00000KT 03/03 A3016 RMK A01 T00330030  RH  098%=      5-min Rain = 0
KCO1 160653Z 23000KT 03/03 A3016 RMK A01 T00330031  RH  098%=      5-min Rain = 0
KCO1 160654Z 22001KT 03/03 A3016 RMK A01 T00320030  RH  098%=      5-min Rain = 0
KCO1 160655Z 21001KT 03/03 A3016 RMK A01 T00310029  RH  098%=      5-min Rain = 0
KCO1 160656Z 21002KT 03/03 A3015 RMK A01 T00300027  RH  098%=      5-min Rain = 0
KCO1 160657Z 21002KT 03/03 A3015 RMK A01 T00290026  RH  098%=      5-min Rain = 0
KCO1 160658Z 18002KT 03/03 A3015 RMK A01 T00290027  RH  098%=      5-min Rain = 0
KCO1 160659Z 18002KT 03/03 A3015 RMK A01 T00290026  RH  098%=      5-min Rain = 0
KCO1 160700Z 18002KT 03/03 A3015 RMK A01 T00290026  RH  098%=      5-min Rain = 0
KCO1 160701Z 18000KT 03/03 A3016 RMK A01 T00290026  RH  098%=      5-min Rain = 0
KCO1 160702Z 18000KT 03/03 A3016 RMK A01 T00290027  RH  099%=      5-min Rain = 0
KCO1 160703Z 13000KT 03/03 A3016 RMK A01 T00310029  RH  099%=      5-min Rain = 0
KCO1 160704Z 13001KT 03/03 A3015 RMK A01 T00320031  RH  099%=      5-min Rain = 0
KCO1 160705Z 14002KT 03/03 A3015 RMK A01 T00320030  RH  099%=      5-min Rain = 0
KCO1 160706Z 14002KT 03/03 A3015 RMK A01 T00310029  RH  099%=      5-min Rain = 0
KCO1 160707Z 14002KT 03/03 A3015 RMK A01 T00310029  RH  099%=      5-min Rain = 0
KCO1 160708Z 14002KT 03/03 A3015 RMK A01 T00310030  RH  099%=      5-min Rain = 0
KCO1 160709Z 14002KT 03/03 A3015 RMK A01 T00310029  RH  099%=      5-min Rain = 0
KCO1 160710Z 14002KT 03/03 A3016 RMK A01 T00300028  RH  099%=      5-min Rain = 0
KCO1 160711Z 14002KT 03/03 A3016 RMK A01 T00290027  RH  099%=      5-min Rain = 0
KCO1 160712Z 14002KT 03/03 A3016 RMK A01 T00280026  RH  098%=      5-min Rain = 0
KCO1 160713Z 15002KT 03/02 A3016 RMK A01 T00260024  RH  098%=      5-min Rain = 0
KCO1 160714Z 15002KT 03/02 A3015 RMK A01 T00250023  RH  098%=      5-min Rain = 0
KCO1 160715Z 14002KT 03/02 A3015 RMK A01 T00250022  RH  098%=      5-min Rain = 0
KCO1 160716Z 13001KT 02/02 A3015 RMK A01 T00240022  RH  098%=      5-min Rain = 0
KCO1 160717Z 13001KT 02/02 A3015 RMK A01 T00240022  RH  098%=      5-min Rain = 0
KCO1 160718Z 13001KT 02/02 A3015 RMK A01 T00240022  RH  099%=      5-min Rain = 0
KCO1 160719Z 13001KT 02/02 A3015 RMK A01 T00240022  RH  099%=      5-min Rain = 0
KCO1 160720Z 14002KT 02/02 A3015 RMK A01 T00240022  RH  099%=      5-min Rain = 0
KCO1 160721Z 14002KT 03/02 A3015 RMK A01 T00250023  RH  099%=      5-min Rain = 0
KCO1 160722Z 14002KT 02/02 A3015 RMK A01 T00240022  RH  099%=      5-min Rain = 0
KCO1 160723Z 15002KT 02/02 A3015 RMK A01 T00240022  RH  099%=      5-min Rain = 0
KCO1 160724Z 15002KT 02/02 A3015 RMK A01 T00240022  RH  099%=      5-min Rain = 0
KCO1 160725Z 15002KT 02/02 A3015 RMK A01 T00240021  RH  099%=      5-min Rain = 0
KCO1 160726Z 15002KT 02/02 A3015 RMK A01 T00240021  RH  099%=      5-min Rain = 0
KCO1 160727Z 15002KT 02/02 A3015 RMK A01 T00240022  RH  099%=      5-min Rain = 0
KCO1 160728Z 15002KT 02/02 A3015 RMK A01 T00230022  RH  099%=      5-min Rain = 0
KCO1 160729Z 15002KT 02/02 A3015 RMK A01 T00230022  RH  099%=      5-min Rain = 0
KCO1 160730Z 15002KT 02/02 A3015 RMK A01 T00240022  RH  099%=      5-min Rain = 0
KCO1 160731Z 15002KT 02/02 A3015 RMK A01 T00230021  RH  099%=      5-min Rain = 0
KCO1 160732Z 17002KT 02/02 A3015 RMK A01 T00230021  RH  099%=      5-min Rain = 0
KCO1 160733Z 17002KT 02/02 A3015 RMK A01 T00240022  RH  099%=      5-min Rain = 0
KCO1 160734Z 17002KT 02/02 A3015 RMK A01 T00230022  RH  099%=      5-min Rain = 0
KCO1 160735Z 17002KT 02/02 A3015 RMK A01 T00240022  RH  099%=      5-min Rain = 0
KCO1 160736Z 18002KT 02/02 A3015 RMK A01 T00230021  RH  099%=      5-min Rain = 0
KCO1 160737Z 18002KT 02/02 A3015 RMK A01 T00230021  RH  099%=      5-min Rain = 0
KCO1 160738Z 18002KT 02/02 A3015 RMK A01 T00220020  RH  099%=      5-min Rain = 0
KCO1 160739Z 20002KT 02/02 A3015 RMK A01 T00220020  RH  099%=      5-min Rain = 0
KCO1 160740Z 22002KT 02/02 A3015 RMK A01 T00220020  RH  099%=      5-min Rain = 0
KCO1 160741Z 22001KT 02/02 A3015 RMK A01 T00230021  RH  099%=      5-min Rain = 0
KCO1 160742Z 19002KT 02/02 A3015 RMK A01 T00230022  RH  099%=      5-min Rain = 0
KCO1 160743Z 19002KT 02/02 A3015 RMK A01 T00240022  RH  099%=      5-min Rain = 0
KCO1 160744Z 18002KT 03/02 A3015 RMK A01 T00250023  RH  099%=      5-min Rain = 0
KCO1 160745Z 17002KT 03/02 A3015 RMK A01 T00250024  RH  099%=      5-min Rain = 0
KCO1 160746Z 17002KT 03/02 A3015 RMK A01 T00250023  RH  099%=      5-min Rain = 0
KCO1 160747Z 17002KT 02/02 A3015 RMK A01 T00240023  RH  099%=      5-min Rain = 0
KCO1 160748Z 17002KT 02/02 A3015 RMK A01 T00230022  RH  099%=      5-min Rain = 0
KCO1 160749Z 17002KT 02/02 A3015 RMK A01 T00230021  RH  099%=      5-min Rain = 0
KCO1 160750Z 17003KT 02/02 A3015 RMK A01 T00230021  RH  099%=      5-min Rain = 0
KCO1 160751Z 20002KT 02/02 A3015 RMK A01 T00230021  RH  099%=      5-min Rain = 0
KCO1 160752Z 20003KT 02/02 A3015 RMK A01 T00220021  RH  099%=      5-min Rain = 0
KCO1 160753Z 21003KT 02/02 A3015 RMK A01 T00220020  RH  099%=      5-min Rain = 0
KCO1 160754Z 21002KT 02/02 A3015 RMK A01 T00210019  RH  099%=      5-min Rain = 0
KCO1 160755Z 21001KT 02/02 A3015 RMK A01 T00200018  RH  099%=      5-min Rain = 0
KCO1 160756Z 20002KT 02/02 A3015 RMK A01 T00180016  RH  099%=      5-min Rain = 0
KCO1 160757Z 19003KT 02/02 A3015 RMK A01 T00170015  RH  098%=      5-min Rain = 0
KCO1 160758Z 19003KT 02/02 A3015 RMK A01 T00170015  RH  099%=      5-min Rain = 0
KCO1 160759Z 19003KT 02/02 A3015 RMK A01 T00170015  RH  099%=      5-min Rain = 0
KCO1 160800Z 19003KT 02/02 A3015 RMK A01 T00180016  RH  099%=      5-min Rain = 0
KCO1 160801Z 20002KT 02/02 A3015 RMK A01 T00180017  RH  099%=      5-min Rain = 0
KCO1 160802Z 21003KT 02/02 A3015 RMK A01 T00180017  RH  099%=      5-min Rain = 0
KCO1 160803Z 22003KT 02/02 A3015 RMK A01 T00180016  RH  099%=      5-min Rain = 0
KCO1 160804Z 22003KT 02/02 A3015 RMK A01 T00180016  RH  099%=      5-min Rain = 0
KCO1 160805Z 22003KT 02/02 A3015 RMK A01 T00180016  RH  099%=      5-min Rain = 0
KCO1 160806Z 22003KT 02/02 A3015 RMK A01 T00170015  RH  099%=      5-min Rain = 0
KCO1 160807Z 22003KT 02/02 A3015 RMK A01 T00170015  RH  099%=      5-min Rain = 0
KCO1 160808Z 22002KT 02/02 A3015 RMK A01 T00170015  RH  099%=      5-min Rain = 0
KCO1 160809Z 22002KT 02/02 A3015 RMK A01 T00170015  RH  099%=      5-min Rain = 0
KCO1 160810Z 22002KT 02/02 A3015 RMK A01 T00180016  RH  099%=      5-min Rain = 0
KCO1 160811Z 22002KT 02/02 A3015 RMK A01 T00180016  RH  099%=      5-min Rain = 0
KCO1 160812Z 22002KT 02/02 A3015 RMK A01 T00180016  RH  099%=      5-min Rain = 0
KCO1 160813Z 21003KT 02/02 A3015 RMK A01 T00180016  RH  099%=      5-min Rain = 0
KCO1 160814Z 21002KT 02/02 A3015 RMK A01 T00180016  RH  099%=      5-min Rain = 0
KCO1 160815Z 22002KT 02/02 A3015 RMK A01 T00180016  RH  099%=      5-min Rain = 0
KCO1 160816Z 22002KT 02/02 A3015 RMK A01 T00170016  RH  099%=      5-min Rain = 0
KCO1 160817Z 22002KT 02/02 A3015 RMK A01 T00170016  RH  099%=      5-min Rain = 0
KCO1 160818Z 21003KT 02/02 A3015 RMK A01 T00170016  RH  099%=      5-min Rain = 0
KCO1 160819Z 21003KT 02/02 A3015 RMK A01 T00170016  RH  099%=      5-min Rain = 0
KCO1 160820Z 22003KT 02/02 A3015 RMK A01 T00170015  RH  099%=      5-min Rain = 0
KCO1 160821Z 23002KT 02/02 A3015 RMK A01 T00170016  RH  099%=      5-min Rain = 0
KCO1 160822Z 23002KT 02/02 A3015 RMK A01 T00170015  RH  099%=      5-min Rain = 0
KCO1 160823Z 22003KT 02/01 A3015 RMK A01 T00160014  RH  099%=      5-min Rain = 0
KCO1 160824Z 22003KT 02/01 A3015 RMK A01 T00160014  RH  099%=      5-min Rain = 0
KCO1 160825Z 23002KT 02/01 A3015 RMK A01 T00160014  RH  099%=      5-min Rain = 0
KCO1 160826Z 23002KT 02/01 A3015 RMK A01 T00150013  RH  099%=      5-min Rain = 0
KCO1 160827Z 23002KT 02/01 A3015 RMK A01 T00150013  RH  099%=      5-min Rain = 0
KCO1 160828Z 23001KT 02/01 A3015 RMK A01 T00150013  RH  099%=      5-min Rain = 0
KCO1 160829Z 23002KT 01/01 A3015 RMK A01 T00140013  RH  099%=      5-min Rain = 0
KCO1 160830Z 22002KT 01/01 A3015 RMK A01 T00140012  RH  099%=      5-min Rain = 0
KCO1 160831Z 22002KT 01/01 A3015 RMK A01 T00140012  RH  099%=      5-min Rain = 0
KCO1 160832Z 22002KT 01/01 A3015 RMK A01 T00140013  RH  099%=      5-min Rain = 0
KCO1 160833Z 22002KT 01/01 A3015 RMK A01 T00140012  RH  099%=      5-min Rain = 0
KCO1 160834Z 23002KT 01/01 A3016 RMK A01 T00140013  RH  099%=      5-min Rain = 0
KCO1 160835Z 23002KT 01/01 A3016 RMK A01 T00140012  RH  099%=      5-min Rain = 0
KCO1 160836Z 24002KT 01/01 A3016 RMK A01 T00140013  RH  099%=      5-min Rain = 0
KCO1 160837Z 24002KT 01/01 A3016 RMK A01 T00140012  RH  099%=      5-min Rain = 0
KCO1 160838Z 24002KT 01/01 A3016 RMK A01 T00140013  RH  099%=      5-min Rain = 0
KCO1 160839Z 24002KT 01/01 A3016 RMK A01 T00140012  RH  099%=      5-min Rain = 0
KCO1 160840Z 25002KT 01/01 A3016 RMK A01 T00140012  RH  099%=      5-min Rain = 0
KCO1 160841Z 25002KT 01/01 A3016 RMK A01 T00140012  RH  099%=      5-min Rain = 0
KCO1 160842Z 27002KT 01/01 A3016 RMK A01 T00140012  RH  099%=      5-min Rain = 0
KCO1 160843Z 27002KT 01/01 A3016 RMK A01 T00140013  RH  099%=      5-min Rain = 0
KCO1 160844Z 27002KT 01/01 A3016 RMK A01 T00140013  RH  099%=      5-min Rain = 0
KCO1 160845Z 27003KT 02/01 A3016 RMK A01 T00150013  RH  099%=      5-min Rain = 0
KCO1 160846Z 28003KT 02/01 A3016 RMK A01 T00150014  RH  099%=      5-min Rain = 0
KCO1 160847Z 27002KT 02/01 A3016 RMK A01 T00150014  RH  099%=      5-min Rain = 0
KCO1 160848Z 27002KT 02/01 A3016 RMK A01 T00150014  RH  099%=      5-min Rain = 0
KCO1 160849Z 28003KT 02/01 A3016 RMK A01 T00160014  RH  099%=      5-min Rain = 0
KCO1 160850Z 28003KT 02/02 A3016 RMK A01 T00160015  RH  099%=      5-min Rain = 0
KCO1 160851Z 27003KT 02/02 A3016 RMK A01 T00160015  RH  099%=      5-min Rain = 0
KCO1 160852Z 27003KT 02/02 A3016 RMK A01 T00160015  RH  099%=      5-min Rain = 0
KCO1 160853Z 27003KT 02/02 A3016 RMK A01 T00160015  RH  099%=      5-min Rain = 0
KCO1 160854Z 27002KT 02/02 A3016 RMK A01 T00170016  RH  099%=      5-min Rain = 0
KCO1 160855Z 27002KT 02/02 A3016 RMK A01 T00170016  RH  099%=      5-min Rain = 0
KCO1 160856Z 27002KT 02/02 A3016 RMK A01 T00170016  RH  099%=      5-min Rain = 0
KCO1 160857Z 27001KT 02/02 A3016 RMK A01 T00160015  RH  099%=      5-min Rain = 0
KCO1 160858Z 26001KT 02/02 A3016 RMK A01 T00160015  RH  099%=      5-min Rain = 0
KCO1 160859Z 25001KT 02/02 A3016 RMK A01 T00160015  RH  099%=      5-min Rain = 0
KCO1 160900Z 23001KT 02/02 A3016 RMK A01 T00160015  RH  099%=      5-min Rain = 0
KCO1 160901Z 20002KT 02/02 A3016 RMK A01 T00160015  RH  099%=      5-min Rain = 0
KCO1 160902Z 21002KT 02/02 A3016 RMK A01 T00160015  RH  099%=      5-min Rain = 0
KCO1 160903Z 19002KT 02/02 A3016 RMK A01 T00170016  RH  099%=      5-min Rain = 0
KCO1 160904Z 19002KT 02/02 A3016 RMK A01 T00170016  RH  099%=      5-min Rain = 0
KCO1 160905Z 20002KT 02/02 A3016 RMK A01 T00170016  RH  099%=      5-min Rain = 0
KCO1 160906Z 21002KT 02/02 A3016 RMK A01 T00160015  RH  099%=      5-min Rain = 0
KCO1 160907Z 21002KT 02/02 A3016 RMK A01 T00160015  RH  099%=      5-min Rain = 0
KCO1 160908Z 22002KT 02/02 A3016 RMK A01 T00160015  RH  099%=      5-min Rain = 0
KCO1 160909Z 23002KT 02/01 A3016 RMK A01 T00150014  RH  099%=      5-min Rain = 0
KCO1 160910Z 23003KT 02/01 A3016 RMK A01 T00150014  RH  099%=      5-min Rain = 0
KCO1 160911Z 24003KT 02/01 A3017 RMK A01 T00150014  RH  099%=      5-min Rain = 0
KCO1 160912Z 24004KT 02/02 A3017 RMK A01 T00160015  RH  099%=      5-min Rain = 0
KCO1 160913Z 24004KT 02/02 A3017 RMK A01 T00160015  RH  099%=      5-min Rain = 0
KCO1 160914Z 24004KT 02/02 A3017 RMK A01 T00160015  RH  099%=      5-min Rain = 0
KCO1 160915Z 24004KT 02/02 A3017 RMK A01 T00160015  RH  099%=      5-min Rain = 0
KCO1 160916Z 25003KT 02/01 A3017 RMK A01 T00150014  RH  099%=      5-min Rain = 0
KCO1 160917Z 26003KT 02/01 A3017 RMK A01 T00150014  RH  099%=      5-min Rain = 0
KCO1 160918Z 26003KT 02/01 A3017 RMK A01 T00150014  RH  099%=      5-min Rain = 0
KCO1 160919Z 26003KT 02/01 A3017 RMK A01 T00150014  RH  099%=      5-min Rain = 0
KCO1 160920Z 27003KT 02/02 A3017 RMK A01 T00160015  RH  099%=      5-min Rain = 0
KCO1 160921Z 27003KT 02/02 A3017 RMK A01 T00160015  RH  099%=      5-min Rain = 0
KCO1 160922Z 26004KT 02/02 A3017 RMK A01 T00160015  RH  099%=      5-min Rain = 0
KCO1 160923Z 26004KT 02/02 A3017 RMK A01 T00160015  RH  099%=      5-min Rain = 0
KCO1 160924Z 27004KT 02/02 A3017 RMK A01 T00160016  RH  099%=      5-min Rain = 0
KCO1 160925Z 27004KT 02/02 A3017 RMK A01 T00170017  RH  100%=      5-min Rain = 0
KCO1 160926Z 27004KT 02/02 A3017 RMK A01 T00180018  RH  100%=      5-min Rain = 0
KCO1 160927Z 27004KT 02/02 A3017 RMK A01 T00190018  RH  100%=      5-min Rain = 0
KCO1 160928Z 27004KT 02/02 A3017 RMK A01 T00200019  RH  100%=      5-min Rain = 0
KCO1 160929Z 27003KT 02/02 A3017 RMK A01 T00200020  RH  100%=      5-min Rain = 0
KCO1 160930Z 27004KT 02/02 A3017 RMK A01 T00210020  RH  100%=      5-min Rain = 0
KCO1 160931Z 27003KT 02/02 A3017 RMK A01 T00210021  RH  100%=      5-min Rain = 0
KCO1 160932Z 26003KT 02/02 A3017 RMK A01 T00220021  RH  100%=      5-min Rain = 0
KCO1 160933Z 26003KT 02/02 A3017 RMK A01 T00220021  RH  100%=      5-min Rain = 0
KCO1 160934Z 27003KT 02/02 A3017 RMK A01 T00210021  RH  100%=      5-min Rain = 0
KCO1 160935Z 27003KT 02/02 A3017 RMK A01 T00220021  RH  100%=      5-min Rain = 0
KCO1 160936Z 26003KT 02/02 A3017 RMK A01 T00220021  RH  100%=      5-min Rain = 0
KCO1 160937Z 25003KT 02/02 A3017 RMK A01 T00220021  RH  100%=      5-min Rain = 0
KCO1 160938Z 24003KT 02/02 A3017 RMK A01 T00220021  RH  100%=      5-min Rain = 0
KCO1 160939Z 24003KT 02/02 A3017 RMK A01 T00220022  RH  100%=      5-min Rain = 0
KCO1 160940Z 25004KT 02/02 A3017 RMK A01 T00220022  RH  100%=      5-min Rain = 0
KCO1 160941Z 25003KT 02/02 A3017 RMK A01 T00230023  RH  100%=      5-min Rain = 0
KCO1 160942Z 26003KT 02/02 A3017 RMK A01 T00240023  RH  100%=      5-min Rain = 0
KCO1 160943Z 25003KT 02/02 A3017 RMK A01 T00240024  RH  100%=      5-min Rain = 0
KCO1 160944Z 26003KT 02/02 A3017 RMK A01 T00240024  RH  100%=      5-min Rain = 0
KCO1 160945Z 27003KT 02/02 A3017 RMK A01 T00240024  RH  100%=      5-min Rain = 0
KCO1 160946Z 27003KT 02/02 A3017 RMK A01 T00240024  RH  100%=      5-min Rain = 0
KCO1 160947Z 27003KT 02/02 A3017 RMK A01 T00240024  RH  100%=      5-min Rain = 0
KCO1 160948Z 28003KT 03/03 A3017 RMK A01 T00250025  RH  100%=      5-min Rain = 0
KCO1 160949Z 28002KT 03/03 A3017 RMK A01 T00250025  RH  100%=      5-min Rain = 0
KCO1 160950Z 29002KT 03/03 A3017 RMK A01 T00250025  RH  100%=      5-min Rain = 0
KCO1 160951Z 29001KT 03/03 A3017 RMK A01 T00250025  RH  100%=      5-min Rain = 0
KCO1 160952Z 30002KT 03/03 A3017 RMK A01 T00250025  RH  100%=      5-min Rain = 0
KCO1 160953Z 30002KT 03/03 A3017 RMK A01 T00250025  RH  100%=      5-min Rain = 0
KCO1 160954Z 29003KT 02/02 A3017 RMK A01 T00240024  RH  100%=      5-min Rain = 0
KCO1 160955Z 31003KT 02/02 A3017 RMK A01 T00240024  RH  100%=      5-min Rain = 0
KCO1 160956Z 31003KT 02/02 A3017 RMK A01 T00240024  RH  100%=      5-min Rain = 0
KCO1 160957Z 31003KT 02/02 A3017 RMK A01 T00230023  RH  100%=      5-min Rain = 0
KCO1 160958Z 32003KT 02/02 A3017 RMK A01 T00230023  RH  100%=      5-min Rain = 0
KCO1 160959Z 32003KT 02/02 A3017 RMK A01 T00230023  RH  100%=      5-min Rain = 0
KCO1 161000Z 31004KT 02/02 A3017 RMK A01 T00230023  RH  100%=      5-min Rain = 0
KCO1 161001Z 31004KT 02/02 A3017 RMK A01 T00230023  RH  100%=      5-min Rain = 0
KCO1 161002Z 32004KT 02/02 A3017 RMK A01 T00230022  RH  100%=      5-min Rain = 0
KCO1 161003Z 32004KT 02/02 A3017 RMK A01 T00220022  RH  100%=      5-min Rain = 0
KCO1 161004Z 32004KT 02/02 A3017 RMK A01 T00220022  RH  100%=      5-min Rain = 0
KCO1 161005Z 32003KT 02/02 A3017 RMK A01 T00220022  RH  100%=      5-min Rain = 0
KCO1 161006Z 32003KT 02/02 A3017 RMK A01 T00220022  RH  100%=      5-min Rain = 0
KCO1 161007Z 32003KT 02/02 A3017 RMK A01 T00210021  RH  100%=      5-min Rain = 0
KCO1 161008Z 32003KT 02/02 A3017 RMK A01 T00210021  RH  100%=      5-min Rain = 0
KCO1 161009Z 32002KT 02/02 A3017 RMK A01 T00210021  RH  100%=      5-min Rain = 0
KCO1 161010Z 33002KT 02/02 A3017 RMK A01 T00210021  RH  100%=      5-min Rain = 0
KCO1 161011Z 34002KT 02/02 A3017 RMK A01 T00210021  RH  100%=      5-min Rain = 0
KCO1 161012Z 33002KT 02/02 A3017 RMK A01 T00210021  RH  100%=      5-min Rain = 0
KCO1 161013Z 31002KT 02/02 A3017 RMK A01 T00200020  RH  100%=      5-min Rain = 0
KCO1 161014Z 32002KT 02/02 A3017 RMK A01 T00200020  RH  100%=      5-min Rain = 0
KCO1 161015Z 32002KT 02/02 A3017 RMK A01 T00200020  RH  100%=      5-min Rain = 0
KCO1 161016Z 31002KT 02/02 A3017 RMK A01 T00200020  RH  100%=      5-min Rain = 0
KCO1 161017Z 32002KT 02/02 A3017 RMK A01 T00200020  RH  100%=      5-min Rain = 0
KCO1 161018Z 32002KT 02/02 A3017 RMK A01 T00200020  RH  100%=      5-min Rain = 0
KCO1 161019Z 32002KT 02/02 A3017 RMK A01 T00190019  RH  100%=      5-min Rain = 0
KCO1 161020Z 32003KT 02/02 A3017 RMK A01 T00190019  RH  100%=      5-min Rain = 0
KCO1 161021Z 32005KT 02/02 A3017 RMK A01 T00190019  RH  100%=      5-min Rain = 0
KCO1 161022Z 32005KT 02/02 A3017 RMK A01 T00200019  RH  100%=      5-min Rain = 0
KCO1 161023Z 31006KT 02/02 A3017 RMK A01 T00190019  RH  100%=      5-min Rain = 0
KCO1 161024Z 31006KT 02/02 A3017 RMK A01 T00200020  RH  100%=      5-min Rain = 0
KCO1 161025Z 32005KT 02/02 A3017 RMK A01 T00200020  RH  100%=      5-min Rain = 0
KCO1 161026Z 32004KT 02/02 A3017 RMK A01 T00200020  RH  100%=      5-min Rain = 0
KCO1 161027Z 32004KT 02/02 A3017 RMK A01 T00200020  RH  100%=      5-min Rain = 0
KCO1 161028Z 33003KT 02/02 A3017 RMK A01 T00210020  RH  100%=      5-min Rain = 0
KCO1 161029Z 33004KT 02/02 A3017 RMK A01 T00200020  RH  100%=      5-min Rain = 0
KCO1 161030Z 32004KT 02/02 A3017 RMK A01 T00200020  RH  100%=      5-min Rain = 0
KCO1 161031Z 32004KT 02/02 A3017 RMK A01 T00200020  RH  100%=      5-min Rain = 0
KCO1 161032Z 32004KT 02/02 A3017 RMK A01 T00200020  RH  100%=      5-min Rain = 0
KCO1 161033Z 32004KT 02/02 A3017 RMK A01 T00200020  RH  100%=      5-min Rain = 0
KCO1 161034Z 31004KT 02/02 A3017 RMK A01 T00200020  RH  100%=      5-min Rain = 0
KCO1 161035Z 31003KT 02/02 A3017 RMK A01 T00190019  RH  100%=      5-min Rain = 0
KCO1 161036Z 31004KT 02/02 A3017 RMK A01 T00190019  RH  100%=      5-min Rain = 0
KCO1 161037Z 31004KT 02/02 A3017 RMK A01 T00190019  RH  100%=      5-min Rain = 0
KCO1 161038Z 31003KT 02/02 A3017 RMK A01 T00190019  RH  100%=      5-min Rain = 0
KCO1 161039Z 32003KT 02/02 A3017 RMK A01 T00180018  RH  100%=      5-min Rain = 0
KCO1 161040Z 32003KT 02/02 A3017 RMK A01 T00180018  RH  100%=      5-min Rain = 0
KCO1 161041Z 32002KT 02/02 A3017 RMK A01 T00180018  RH  100%=      5-min Rain = 0
KCO1 161042Z 31002KT 02/02 A3017 RMK A01 T00180018  RH  100%=      5-min Rain = 0
KCO1 161043Z 31002KT 02/02 A3017 RMK A01 T00170017  RH  100%=      5-min Rain = 0
KCO1 161044Z 32002KT 02/02 A3017 RMK A01 T00170017  RH  100%=      5-min Rain = 0
KCO1 161045Z 32002KT 02/02 A3017 RMK A01 T00170017  RH  100%=      5-min Rain = 0
KCO1 161046Z 33002KT 02/02 A3017 RMK A01 T00170017  RH  100%=      5-min Rain = 0
KCO1 161047Z 33002KT 02/02 A3017 RMK A01 T00170017  RH  100%=      5-min Rain = 0
KCO1 161048Z 32002KT 02/02 A3017 RMK A01 T00170017  RH  100%=      5-min Rain = 0
KCO1 161049Z 32002KT 02/02 A3017 RMK A01 T00170017  RH  100%=      5-min Rain = 0
KCO1 161050Z 31001KT 02/02 A3017 RMK A01 T00170017  RH  100%=      5-min Rain = 0
KCO1 161051Z 32002KT 02/02 A3017 RMK A01 T00160016  RH  100%=      5-min Rain = 0
KCO1 161052Z 32001KT 02/02 A3017 RMK A01 T00160016  RH  100%=      5-min Rain = 0
KCO1 161053Z 32001KT 02/02 A3017 RMK A01 T00160016  RH  100%=      5-min Rain = 0
KCO1 161054Z 31001KT 02/02 A3017 RMK A01 T00160016  RH  100%=      5-min Rain = 0
KCO1 161055Z 31001KT 02/02 A3017 RMK A01 T00150015  RH  100%=      5-min Rain = 0
KCO1 161056Z 31001KT 02/02 A3017 RMK A01 T00150015  RH  100%=      5-min Rain = 0
KCO1 161057Z 31000KT 02/02 A3017 RMK A01 T00150015  RH  100%=      5-min Rain = 0
KCO1 161058Z 00000KT 02/02 A3017 RMK A01 T00150015  RH  100%=      5-min Rain = 0
KCO1 161059Z 00000KT 02/02 A3017 RMK A01 T00150015  RH  100%=      5-min Rain = 0
KCO1 161100Z 31000KT 02/02 A3017 RMK A01 T00150015  RH  100%=      5-min Rain = 0
KCO1 161101Z 00000KT 02/02 A3017 RMK A01 T00150015  RH  100%=      5-min Rain = 0
KCO1 161102Z 00000KT 02/02 A3017 RMK A01 T00150015  RH  100%=      5-min Rain = 0
KCO1 161103Z 32000KT 02/02 A3017 RMK A01 T00150015  RH  100%=      5-min Rain = 0
KCO1 161104Z 08001KT 02/02 A3016 RMK A01 T00150015  RH  100%=      5-min Rain = 0
KCO1 161105Z 09001KT 02/02 A3016 RMK A01 T00150015  RH  100%=      5-min Rain = 0
KCO1 161106Z 10001KT 02/02 A3016 RMK A01 T00150015  RH  100%=      5-min Rain = 0
KCO1 161107Z 10001KT 02/02 A3016 RMK A01 T00150015  RH  100%=      5-min Rain = 0
KCO1 161108Z 10001KT 01/01 A3016 RMK A01 T00140014  RH  100%=      5-min Rain = 0
KCO1 161109Z 10001KT 01/01 A3016 RMK A01 T00140014  RH  100%=      5-min Rain = 0
KCO1 161110Z 10001KT 01/01 A3016 RMK A01 T00140014  RH  100%=      5-min Rain = 0
KCO1 161111Z 11001KT 02/02 A3016 RMK A01 T00150015  RH  100%=      5-min Rain = 0
KCO1 161112Z 12001KT 01/01 A3016 RMK A01 T00140014  RH  100%=      5-min Rain = 0
KCO1 161113Z 12002KT 01/01 A3016 RMK A01 T00140014  RH  100%=      5-min Rain = 0
KCO1 161114Z 12002KT 01/01 A3016 RMK A01 T00140014  RH  100%=      5-min Rain = 0
KCO1 161115Z 12001KT 01/01 A3016 RMK A01 T00140014  RH  100%=      5-min Rain = 0
KCO1 161116Z 12001KT 01/01 A3016 RMK A01 T00140014  RH  100%=      5-min Rain = 0
KCO1 161117Z 12001KT 01/01 A3016 RMK A01 T00140014  RH  100%=      5-min Rain = 0
KCO1 161118Z 13001KT 01/01 A3016 RMK A01 T00140014  RH  100%=      5-min Rain = 0
KCO1 161119Z 14001KT 01/01 A3016 RMK A01 T00140014  RH  100%=      5-min Rain = 0
KCO1 161120Z 15001KT 01/01 A3016 RMK A01 T00140014  RH  100%=      5-min Rain = 0
KCO1 161121Z 16001KT 01/01 A3016 RMK A01 T00140014  RH  100%=      5-min Rain = 0
KCO1 161122Z 16001KT 01/01 A3016 RMK A01 T00140014  RH  100%=      5-min Rain = 0
KCO1 161123Z 16001KT 01/01 A3016 RMK A01 T00130013  RH  100%=      5-min Rain = 0
KCO1 161124Z 16002KT 01/01 A3016 RMK A01 T00130013  RH  100%=      5-min Rain = 0
KCO1 161125Z 16002KT 01/01 A3016 RMK A01 T00130013  RH  100%=      5-min Rain = 0
KCO1 161126Z 16002KT 01/01 A3016 RMK A01 T00130013  RH  100%=      5-min Rain = 0
KCO1 161127Z 16002KT 01/01 A3016 RMK A01 T00130013  RH  100%=      5-min Rain = 0
KCO1 161128Z 16002KT 01/01 A3016 RMK A01 T00130013  RH  100%=      5-min Rain = 0
KCO1 161129Z 16002KT 01/01 A3016 RMK A01 T00130013  RH  100%=      5-min Rain = 0
KCO1 161130Z 16002KT 01/01 A3016 RMK A01 T00120012  RH  100%=      5-min Rain = 0
KCO1 161131Z 16002KT 01/01 A3015 RMK A01 T00120012  RH  100%=      5-min Rain = 0
KCO1 161132Z 16002KT 01/01 A3015 RMK A01 T00120012  RH  100%=      5-min Rain = 0
KCO1 161133Z 16002KT 01/01 A3015 RMK A01 T00120012  RH  100%=      5-min Rain = 0
KCO1 161134Z 15002KT 01/01 A3015 RMK A01 T00120012  RH  100%=      5-min Rain = 0
KCO1 161135Z 15002KT 01/01 A3015 RMK A01 T00120012  RH  100%=      5-min Rain = 0
KCO1 161136Z 14002KT 01/01 A3015 RMK A01 T00120011  RH  100%=      5-min Rain = 0
KCO1 161137Z 14002KT 01/01 A3015 RMK A01 T00110011  RH  100%=      5-min Rain = 0
KCO1 161138Z 14002KT 01/01 A3015 RMK A01 T00110011  RH  100%=      5-min Rain = 0
KCO1 161139Z 14003KT 01/01 A3015 RMK A01 T00110011  RH  100%=      5-min Rain = 0
KCO1 161140Z 14003KT 01/01 A3015 RMK A01 T00110011  RH  100%=      5-min Rain = 0
KCO1 161141Z 13003KT 01/01 A3015 RMK A01 T00120012  RH  100%=      5-min Rain = 0
KCO1 161142Z 14003KT 01/01 A3015 RMK A01 T00120012  RH  100%=      5-min Rain = 0
KCO1 161143Z 14003KT 01/01 A3015 RMK A01 T00120012  RH  100%=      5-min Rain = 0
KCO1 161144Z 14003KT 01/01 A3015 RMK A01 T00120012  RH  100%=      5-min Rain = 0
KCO1 161145Z 14003KT 01/01 A3015 RMK A01 T00120012  RH  100%=      5-min Rain = 0
KCO1 161146Z 14003KT 01/01 A3015 RMK A01 T00120012  RH  100%=      5-min Rain = 0
KCO1 161147Z 14002KT 01/01 A3015 RMK A01 T00130013  RH  100%=      5-min Rain = 0
KCO1 161148Z 14002KT 01/01 A3015 RMK A01 T00130012  RH  100%=      5-min Rain = 0
KCO1 161149Z 14002KT 01/01 A3015 RMK A01 T00130013  RH  100%=      5-min Rain = 0
KCO1 161150Z 15002KT 01/01 A3015 RMK A01 T00130013  RH  100%=      5-min Rain = 0
KCO1 161151Z 15002KT 01/01 A3015 RMK A01 T00120012  RH  100%=      5-min Rain = 0
KCO1 161152Z 16001KT 01/01 A3015 RMK A01 T00120012  RH  100%=      5-min Rain = 0
KCO1 161153Z 16001KT 01/01 A3015 RMK A01 T00120012  RH  100%=      5-min Rain = 0
KCO1 161154Z 16001KT 01/01 A3015 RMK A01 T00120012  RH  100%=      5-min Rain = 0
KCO1 161155Z 16001KT 01/01 A3015 RMK A01 T00110011  RH  100%=      5-min Rain = 0
KCO1 161156Z 16000KT 01/01 A3016 RMK A01 T00110011  RH  100%=      5-min Rain = 0
KCO1 161157Z 16000KT 01/01 A3016 RMK A01 T00110011  RH  100%=      5-min Rain = 0
KCO1 161158Z 16000KT 01/01 A3016 RMK A01 T00110011  RH  100%=      5-min Rain = 0
KCO1 161159Z 24001KT 01/01 A3016 RMK A01 T00120011  RH  100%=      5-min Rain = 0
KCO1 161200Z 27002KT 01/01 A3016 RMK A01 T00120012  RH  100%=      5-min Rain = 0
KCO1 161201Z 27002KT 01/01 A3016 RMK A01 T00120012  RH  100%=      5-min Rain = 0
KCO1 161202Z 27002KT 01/01 A3016 RMK A01 T00120012  RH  100%=      5-min Rain = 0
KCO1 161203Z 26002KT 01/01 A3016 RMK A01 T00120012  RH  100%=      5-min Rain = 0
KCO1 161204Z 26002KT 01/01 A3016 RMK A01 T00120012  RH  100%=      5-min Rain = 0
KCO1 161205Z 26002KT 01/01 A3016 RMK A01 T00120012  RH  100%=      5-min Rain = 0
KCO1 161206Z 26002KT 01/01 A3016 RMK A01 T00120012  RH  100%=      5-min Rain = 0
KCO1 161207Z 26003KT 01/01 A3016 RMK A01 T00120012  RH  100%=      5-min Rain = 0
KCO1 161208Z 26003KT 01/01 A3016 RMK A01 T00110011  RH  100%=      5-min Rain = 0
KCO1 161209Z 26003KT 01/01 A3016 RMK A01 T00110011  RH  100%=      5-min Rain = 0
KCO1 161210Z 26003KT 01/01 A3016 RMK A01 T00110011  RH  100%=      5-min Rain = 0
KCO1 161211Z 27003KT 01/01 A3016 RMK A01 T00100010  RH  100%=      5-min Rain = 0
KCO1 161212Z 27002KT 01/01 A3016 RMK A01 T00100010  RH  100%=      5-min Rain = 0
KCO1 161213Z 27002KT 01/01 A3016 RMK A01 T00100010  RH  100%=      5-min Rain = 0
KCO1 161214Z 27002KT 01/01 A3016 RMK A01 T00100010  RH  100%=      5-min Rain = 0
KCO1 161215Z 26002KT 01/01 A3016 RMK A01 T00100010  RH  100%=      5-min Rain = 0
KCO1 161216Z 24002KT 01/01 A3016 RMK A01 T00100010  RH  100%=      5-min Rain = 0
KCO1 161217Z 22002KT 01/01 A3016 RMK A01 T00100010  RH  100%=      5-min Rain = 0
KCO1 161218Z 20002KT 01/01 A3016 RMK A01 T00100010  RH  100%=      5-min Rain = 0
KCO1 161219Z 21003KT 01/01 A3016 RMK A01 T00100010  RH  100%=      5-min Rain = 0
KCO1 161220Z 20003KT 01/01 A3016 RMK A01 T00110011  RH  100%=      5-min Rain = 0
KCO1 161221Z 20003KT 01/01 A3016 RMK A01 T00120012  RH  100%=      5-min Rain = 0
KCO1 161222Z 20003KT 01/01 A3016 RMK A01 T00120012  RH  100%=      5-min Rain = 0
KCO1 161223Z 20003KT 01/01 A3016 RMK A01 T00130013  RH  100%=      5-min Rain = 0
KCO1 161224Z 20003KT 01/01 A3016 RMK A01 T00130013  RH  100%=      5-min Rain = 0
KCO1 161225Z 21002KT 01/01 A3016 RMK A01 T00130013  RH  100%=      5-min Rain = 0
KCO1 161226Z 22003KT 01/01 A3016 RMK A01 T00130013  RH  100%=      5-min Rain = 0
KCO1 161227Z 23002KT 01/01 A3017 RMK A01 T00130013  RH  100%=      5-min Rain = 0
KCO1 161228Z 24002KT 01/01 A3017 RMK A01 T00130013  RH  100%=      5-min Rain = 0
KCO1 161229Z 23002KT 01/01 A3017 RMK A01 T00130013  RH  100%=      5-min Rain = 0
KCO1 161230Z 22002KT 01/01 A3016 RMK A01 T00130013  RH  100%=      5-min Rain = 0
KCO1 161231Z 22003KT 01/01 A3016 RMK A01 T00120012  RH  100%=      5-min Rain = 0
KCO1 161232Z 22002KT 01/01 A3017 RMK A01 T00110011  RH  100%=      5-min Rain = 0
KCO1 161233Z 23002KT 01/01 A3017 RMK A01 T00120012  RH  100%=      5-min Rain = 0
KCO1 161234Z 25002KT 01/01 A3017 RMK A01 T00120012  RH  100%=      5-min Rain = 0
KCO1 161235Z 26002KT 01/01 A3017 RMK A01 T00120012  RH  100%=      5-min Rain = 0
KCO1 161236Z 24002KT 01/01 A3017 RMK A01 T00120012  RH  100%=      5-min Rain = 0
KCO1 161237Z 22002KT 01/01 A3017 RMK A01 T00120012  RH  100%=      5-min Rain = 0
KCO1 161238Z 21002KT 01/01 A3016 RMK A01 T00120012  RH  100%=      5-min Rain = 0
KCO1 161239Z 20003KT 01/01 A3016 RMK A01 T00120012  RH  100%=      5-min Rain = 0
KCO1 161240Z 19002KT 01/01 A3016 RMK A01 T00120012  RH  100%=      5-min Rain = 0
KCO1 161241Z 19001KT 01/01 A3017 RMK A01 T00120012  RH  100%=      5-min Rain = 0
KCO1 161242Z 31000KT 01/01 A3017 RMK A01 T00130013  RH  100%=      5-min Rain = 0
KCO1 161243Z 32001KT 01/01 A3017 RMK A01 T00130013  RH  100%=      5-min Rain = 0
KCO1 161244Z 32001KT 01/01 A3017 RMK A01 T00130013  RH  100%=      5-min Rain = 0
KCO1 161245Z 34001KT 01/01 A3017 RMK A01 T00130013  RH  100%=      5-min Rain = 0
KCO1 161246Z 00000KT 01/01 A3017 RMK A01 T00130013  RH  100%=      5-min Rain = 0
KCO1 161247Z 00000KT 01/01 A3017 RMK A01 T00130013  RH  100%=      5-min Rain = 0
KCO1 161248Z 00000KT 01/01 A3017 RMK A01 T00130013  RH  100%=      5-min Rain = 0
KCO1 161249Z 00000KT 01/01 A3017 RMK A01 T00130013  RH  100%=      5-min Rain = 0
KCO1 161250Z 34000KT 01/01 A3017 RMK A01 T00130013  RH  100%=      5-min Rain = 0
KCO1 161251Z 34001KT 01/01 A3016 RMK A01 T00130013  RH  100%=      5-min Rain = 0
KCO1 161252Z 20001KT 01/01 A3016 RMK A01 T00120012  RH  100%=      5-min Rain = 0
KCO1 161253Z 18001KT 01/01 A3016 RMK A01 T00120012  RH  100%=      5-min Rain = 0
KCO1 161254Z 17001KT 01/01 A3016 RMK A01 T00120012  RH  100%=      5-min Rain = 0
KCO1 161255Z 17001KT 01/01 A3016 RMK A01 T00120012  RH  100%=      5-min Rain = 0
KCO1 161256Z 17000KT 01/01 A3017 RMK A01 T00120012  RH  100%=      5-min Rain = 0
KCO1 161257Z 00000KT 01/01 A3017 RMK A01 T00120012  RH  100%=      5-min Rain = 0
KCO1 161258Z 00000KT 01/01 A3017 RMK A01 T00120012  RH  100%=      5-min Rain = 0
KCO1 161259Z 00000KT 01/01 A3017 RMK A01 T00120011  RH  100%=      5-min Rain = 0
KCO1 161300Z 00000KT 01/01 A3017 RMK A01 T00120012  RH  100%=      5-min Rain = 0
KCO1 161301Z 00000KT 01/01 A3017 RMK A01 T00120012  RH  100%=      5-min Rain = 0
KCO1 161302Z 10000KT 01/01 A3017 RMK A01 T00130013  RH  100%=      5-min Rain = 0
KCO1 161303Z 10001KT 01/01 A3017 RMK A01 T00130013  RH  100%=      5-min Rain = 0
KCO1 161304Z 10001KT 01/01 A3017 RMK A01 T00130013  RH  100%=      5-min Rain = 0
KCO1 161305Z 12001KT 01/01 A3017 RMK A01 T00130013  RH  100%=      5-min Rain = 0
KCO1 161306Z 12001KT 01/01 A3017 RMK A01 T00130013  RH  100%=      5-min Rain = 0
KCO1 161307Z 12001KT 01/01 A3017 RMK A01 T00130013  RH  100%=      5-min Rain = 0
KCO1 161308Z 12001KT 01/01 A3017 RMK A01 T00130013  RH  100%=      5-min Rain = 0
KCO1 161309Z 14001KT 01/01 A3016 RMK A01 T00140013  RH  100%=      5-min Rain = 0
KCO1 161310Z 14002KT 01/01 A3016 RMK A01 T00130013  RH  100%=      5-min Rain = 0
KCO1 161311Z 14002KT 01/01 A3016 RMK A01 T00130013  RH  100%=      5-min Rain = 0
KCO1 161312Z 14002KT 01/01 A3017 RMK A01 T00130013  RH  100%=      5-min Rain = 0
KCO1 161313Z 14002KT 01/01 A3017 RMK A01 T00130013  RH  100%=      5-min Rain = 0
KCO1 161314Z 14001KT 01/01 A3017 RMK A01 T00140014  RH  100%=      5-min Rain = 0
KCO1 161315Z 14001KT 01/01 A3017 RMK A01 T00130013  RH  100%=      5-min Rain = 0
KCO1 161316Z 14000KT 01/01 A3017 RMK A01 T00140014  RH  100%=      5-min Rain = 0
KCO1 161317Z 00000KT 01/01 A3017 RMK A01 T00140014  RH  100%=      5-min Rain = 0
KCO1 161318Z 32001KT 01/01 A3018 RMK A01 T00140013  RH  100%=      5-min Rain = 0
KCO1 161319Z 33002KT 01/01 A3018 RMK A01 T00140014  RH  100%=      5-min Rain = 0
KCO1 161320Z 34002KT 02/02 A3018 RMK A01 T00150015  RH  100%=      5-min Rain = 0
KCO1 161321Z 33002KT 02/02 A3018 RMK A01 T00150015  RH  100%=      5-min Rain = 0
KCO1 161322Z 32002KT 02/02 A3018 RMK A01 T00160016  RH  100%=      5-min Rain = 0
KCO1 161323Z 32002KT 02/02 A3018 RMK A01 T00160016  RH  100%=      5-min Rain = 0
KCO1 161324Z 32002KT 02/02 A3018 RMK A01 T00160016  RH  100%=      5-min Rain = 0
KCO1 161325Z 32002KT 02/02 A3018 RMK A01 T00170017  RH  100%=      5-min Rain = 0
KCO1 161326Z 32002KT 02/02 A3018 RMK A01 T00170017  RH  100%=      5-min Rain = 0
KCO1 161327Z 33002KT 02/02 A3018 RMK A01 T00170017  RH  100%=      5-min Rain = 0
KCO1 161328Z 32002KT 02/02 A3018 RMK A01 T00170017  RH  100%=      5-min Rain = 0
KCO1 161329Z 33002KT 02/02 A3018 RMK A01 T00160016  RH  100%=      5-min Rain = 0
KCO1 161330Z 33003KT 02/02 A3018 RMK A01 T00150015  RH  100%=      5-min Rain = 0
KCO1 161331Z 33003KT 02/02 A3018 RMK A01 T00150015  RH  100%=      5-min Rain = 0
KCO1 161332Z 34002KT 02/02 A3018 RMK A01 T00150015  RH  100%=      5-min Rain = 0
KCO1 161333Z 34001KT 02/02 A3018 RMK A01 T00150015  RH  100%=      5-min Rain = 0
KCO1 161334Z 34001KT 02/02 A3019 RMK A01 T00150015  RH  100%=      5-min Rain = 0
KCO1 161335Z 34001KT 02/02 A3019 RMK A01 T00150015  RH  100%=      5-min Rain = 0
KCO1 161336Z 34001KT 02/02 A3019 RMK A01 T00150015  RH  100%=      5-min Rain = 0
KCO1 161337Z 33002KT 02/02 A3019 RMK A01 T00150015  RH  100%=      5-min Rain = 0
KCO1 161338Z 33002KT 02/02 A3019 RMK A01 T00150015  RH  100%=      5-min Rain = 0
KCO1 161339Z 32002KT 02/02 A3019 RMK A01 T00150015  RH  100%=      5-min Rain = 0
KCO1 161340Z 33002KT 02/02 A3019 RMK A01 T00150015  RH  100%=      5-min Rain = 0
KCO1 161341Z 32002KT 02/02 A3019 RMK A01 T00150015  RH  100%=      5-min Rain = 0
KCO1 161342Z 31002KT 02/02 A3019 RMK A01 T00150015  RH  100%=      5-min Rain = 0
KCO1 161343Z 31003KT 02/02 A3019 RMK A01 T00150015  RH  100%=      5-min Rain = 0
KCO1 161344Z 31003KT 02/02 A3019 RMK A01 T00150015  RH  100%=      5-min Rain = 0
KCO1 161345Z 32003KT 01/01 A3019 RMK A01 T00140014  RH  100%=      5-min Rain = 0
KCO1 161346Z 32003KT 02/01 A3019 RMK A01 T00150014  RH  100%=      5-min Rain = 0
KCO1 161347Z 32003KT 01/01 A3019 RMK A01 T00140014  RH  100%=      5-min Rain = 0
KCO1 161348Z 33003KT 01/01 A3019 RMK A01 T00140014  RH  100%=      5-min Rain = 0
KCO1 161349Z 34003KT 02/02 A3019 RMK A01 T00150015  RH  100%=      5-min Rain = 0
KCO1 161350Z 33003KT 02/02 A3019 RMK A01 T00150015  RH  100%=      5-min Rain = 0
KCO1 161351Z 33002KT 02/02 A3019 RMK A01 T00160016  RH  100%=      5-min Rain = 0
KCO1 161352Z 32002KT 02/02 A3019 RMK A01 T00160016  RH  100%=      5-min Rain = 0
KCO1 161353Z 32002KT 02/02 A3019 RMK A01 T00160016  RH  100%=      5-min Rain = 0
KCO1 161354Z 32002KT 02/02 A3019 RMK A01 T00160016  RH  100%=      5-min Rain = 0
KCO1 161355Z 32002KT 02/02 A3019 RMK A01 T00170017  RH  100%=      5-min Rain = 0
KCO1 161356Z 33002KT 02/02 A3019 RMK A01 T00170017  RH  100%=      5-min Rain = 0
KCO1 161357Z 33002KT 02/02 A3019 RMK A01 T00170017  RH  100%=      5-min Rain = 0
KCO1 161358Z 34001KT 02/02 A3019 RMK A01 T00170017  RH  100%=      5-min Rain = 0
KCO1 161359Z 34001KT 02/02 A3019 RMK A01 T00170017  RH  100%=      5-min Rain = 0
KCO1 161400Z 34001KT 02/02 A3019 RMK A01 T00180018  RH  100%=      5-min Rain = 0
KCO1 161401Z 34001KT 02/02 A3019 RMK A01 T00180018  RH  100%=      5-min Rain = 0
KCO1 161402Z 34001KT 02/02 A3019 RMK A01 T00180018  RH  100%=      5-min Rain = 0
KCO1 161403Z 34001KT 02/02 A3019 RMK A01 T00180018  RH  100%=      5-min Rain = 0
KCO1 161404Z 34000KT 02/02 A3019 RMK A01 T00190019  RH  100%=      5-min Rain = 0
KCO1 161405Z 00000KT 02/02 A3019 RMK A01 T00200020  RH  100%=      5-min Rain = 0
KCO1 161406Z 00000KT 02/02 A3019 RMK A01 T00200020  RH  100%=      5-min Rain = 0
KCO1 161407Z 30000KT 02/02 A3019 RMK A01 T00200020  RH  100%=      5-min Rain = 0
KCO1 161408Z 30001KT 02/02 A3019 RMK A01 T00200020  RH  100%=      5-min Rain = 0
KCO1 161409Z 30001KT 02/02 A3019 RMK A01 T00200020  RH  100%=      5-min Rain = 0
KCO1 161410Z 30001KT 02/02 A3019 RMK A01 T00200020  RH  100%=      5-min Rain = 0
KCO1 161411Z 30001KT 02/02 A3019 RMK A01 T00200020  RH  100%=      5-min Rain = 0
KCO1 161412Z 30001KT 02/02 A3019 RMK A01 T00200020  RH  100%=      5-min Rain = 0
KCO1 161413Z 31000KT 02/02 A3019 RMK A01 T00210021  RH  100%=      5-min Rain = 0
KCO1 161414Z 32000KT 02/02 A3019 RMK A01 T00210021  RH  100%=      5-min Rain = 0
KCO1 161415Z 32000KT 02/02 A3019 RMK A01 T00210021  RH  100%=      5-min Rain = 0
KCO1 161416Z 00000KT 02/02 A3019 RMK A01 T00220022  RH  100%=      5-min Rain = 0
KCO1 161417Z 00000KT 02/02 A3018 RMK A01 T00230023  RH  100%=      5-min Rain = 0
KCO1 161418Z 02001KT 02/02 A3018 RMK A01 T00230023  RH  100%=      5-min Rain = 0
KCO1 161419Z 02001KT 02/02 A3018 RMK A01 T00230023  RH  100%=      5-min Rain = 0
KCO1 161420Z 02001KT 02/02 A3019 RMK A01 T00240024  RH  100%=      5-min Rain = 0
KCO1 161421Z 01001KT 02/02 A3019 RMK A01 T00240024  RH  100%=      5-min Rain = 0
KCO1 161422Z 35002KT 02/02 A3019 RMK A01 T00240024  RH  100%=      5-min Rain = 0
KCO1 161423Z 34002KT 02/02 A3019 RMK A01 T00240024  RH  100%=      5-min Rain = 0
KCO1 161424Z 34003KT 02/02 A3019 RMK A01 T00240024  RH  100%=      5-min Rain = 0
KCO1 161425Z 34003KT 02/02 A3019 RMK A01 T00240024  RH  100%=      5-min Rain = 0
KCO1 161426Z 33003KT 03/03 A3019 RMK A01 T00250025  RH  100%=      5-min Rain = 0
KCO1 161427Z 34002KT 03/03 A3019 RMK A01 T00250025  RH  100%=      5-min Rain = 0
KCO1 161428Z 36001KT 03/03 A3019 RMK A01 T00260026  RH  100%=      5-min Rain = 0
KCO1 161429Z 01001KT 03/03 A3019 RMK A01 T00260026  RH  100%=      5-min Rain = 0
KCO1 161430Z 02001KT 03/03 A3019 RMK A01 T00260026  RH  100%=      5-min Rain = 0
KCO1 161431Z 02001KT 03/03 A3019 RMK A01 T00260026  RH  100%=      5-min Rain = 0
KCO1 161432Z 05002KT 03/03 A3019 RMK A01 T00260026  RH  100%=      5-min Rain = 0
KCO1 161433Z 05002KT 03/03 A3019 RMK A01 T00260026  RH  100%=      5-min Rain = 0
KCO1 161434Z 06002KT 03/03 A3019 RMK A01 T00270027  RH  100%=      5-min Rain = 0
KCO1 161435Z 06001KT 03/03 A3019 RMK A01 T00280028  RH  100%=      5-min Rain = 0
KCO1 161436Z 04001KT 03/03 A3019 RMK A01 T00280028  RH  100%=      5-min Rain = 0
KCO1 161437Z 02002KT 03/03 A3019 RMK A01 T00280028  RH  100%=      5-min Rain = 0
KCO1 161438Z 36002KT 03/03 A3019 RMK A01 T00290029  RH  100%=      5-min Rain = 0
KCO1 161439Z 36003KT 03/03 A3019 RMK A01 T00290029  RH  100%=      5-min Rain = 0
KCO1 161440Z 35004KT 03/03 A3019 RMK A01 T00290029  RH  100%=      5-min Rain = 0
KCO1 161441Z 35003KT 03/03 A3019 RMK A01 T00290029  RH  100%=      5-min Rain = 0
KCO1 161442Z 36003KT 03/03 A3019 RMK A01 T00290029  RH  100%=      5-min Rain = 0
KCO1 161443Z 01002KT 03/03 A3019 RMK A01 T00280028  RH  100%=      5-min Rain = 0
KCO1 161444Z 03002KT 03/03 A3019 RMK A01 T00290029  RH  100%=      5-min Rain = 0
KCO1 161445Z 03001KT 03/03 A3019 RMK A01 T00300030  RH  100%=      5-min Rain = 0
KCO1 161446Z 03000KT 03/03 A3019 RMK A01 T00310031  RH  100%=      5-min Rain = 0
KCO1 161447Z 03000KT 03/03 A3019 RMK A01 T00330032  RH  100%=      5-min Rain = 0
KCO1 161448Z 07000KT 04/04 A3019 RMK A01 T00350035  RH  100%=      5-min Rain = 0
KCO1 161449Z 08001KT 04/04 A3019 RMK A01 T00370037  RH  100%=      5-min Rain = 0
KCO1 161450Z 10001KT 04/04 A3019 RMK A01 T00360036  RH  100%=      5-min Rain = 0
KCO1 161451Z 12001KT 04/04 A3019 RMK A01 T00370037  RH  100%=      5-min Rain = 0
KCO1 161452Z 10001KT 04/04 A3019 RMK A01 T00370037  RH  100%=      5-min Rain = 0
KCO1 161453Z 10000KT 04/04 A3019 RMK A01 T00370037  RH  100%=      5-min Rain = 0
KCO1 161454Z 00000KT 04/04 A3019 RMK A01 T00360036  RH  100%=      5-min Rain = 0
KCO1 161455Z 35001KT 04/03 A3019 RMK A01 T00350034  RH  100%=      5-min Rain = 0
KCO1 161456Z 35002KT 03/03 A3019 RMK A01 T00340033  RH  100%=      5-min Rain = 0
KCO1 161457Z 33002KT 03/03 A3019 RMK A01 T00340033  RH  100%=      5-min Rain = 0
KCO1 161458Z 32002KT 03/03 A3019 RMK A01 T00340033  RH  100%=      5-min Rain = 0
KCO1 161459Z 33003KT 03/03 A3019 RMK A01 T00340034  RH  100%=      5-min Rain = 0
KCO1 161500Z 33003KT 04/03 A3019 RMK A01 T00350034  RH  100%=      5-min Rain = 0
KCO1 161501Z 34003KT 04/03 A302 RMK A01 T00350034  RH  100%=      5-min Rain = 0
KCO1 161502Z 33004KT 04/04 A302 RMK A01 T00350035  RH  100%=      5-min Rain = 0
KCO1 161503Z 33004KT 04/04 A302 RMK A01 T00360035  RH  100%=      5-min Rain = 0
KCO1 161504Z 33004KT 04/04 A302 RMK A01 T00360036  RH  100%=      5-min Rain = 0
KCO1 161505Z 33004KT 04/04 A302 RMK A01 T00370036  RH  100%=      5-min Rain = 0
KCO1 161506Z 34004KT 04/04 A302 RMK A01 T00370037  RH  100%=      5-min Rain = 0
KCO1 161507Z 33003KT 04/04 A302 RMK A01 T00370037  RH  100%=      5-min Rain = 0
KCO1 161508Z 33002KT 04/04 A302 RMK A01 T00380038  RH  100%=      5-min Rain = 0
KCO1 161509Z 33003KT 04/04 A302 RMK A01 T00390038  RH  100%=      5-min Rain = 0
KCO1 161510Z 33003KT 04/04 A302 RMK A01 T00390038  RH  099%=      5-min Rain = 0
KCO1 161511Z 33003KT 04/04 A302 RMK A01 T00390038  RH  099%=      5-min Rain = 0
KCO1 161512Z 34003KT 04/04 A302 RMK A01 T00390038  RH  099%=      5-min Rain = 0
KCO1 161513Z 35003KT 04/04 A302 RMK A01 T00390037  RH  099%=      5-min Rain = 0
KCO1 161514Z 34003KT 04/04 A302 RMK A01 T00390038  RH  099%=      5-min Rain = 0
KCO1 161515Z 34003KT 04/04 A302 RMK A01 T00390038  RH  099%=      5-min Rain = 0
KCO1 161516Z 35002KT 04/04 A302 RMK A01 T00400039  RH  099%=      5-min Rain = 0
KCO1 161517Z 36002KT 04/04 A302 RMK A01 T00410040  RH  099%=      5-min Rain = 0
KCO1 161518Z 35002KT 04/04 A302 RMK A01 T00410040  RH  099%=      5-min Rain = 0
KCO1 161519Z 34002KT 04/04 A302 RMK A01 T00420041  RH  099%=      5-min Rain = 0
KCO1 161520Z 34002KT 04/04 A302 RMK A01 T00420041  RH  099%=      5-min Rain = 0
KCO1 161521Z 33003KT 04/04 A302 RMK A01 T00420041  RH  099%=      5-min Rain = 0
KCO1 161522Z 33004KT 04/04 A3021 RMK A01 T00420041  RH  099%=      5-min Rain = 0
KCO1 161523Z 33005KT 04/04 A3021 RMK A01 T00420041  RH  099%=      5-min Rain = 0
KCO1 161524Z 33005KT 04/04 A3021 RMK A01 T00430041  RH  099%=      5-min Rain = 0
KCO1 161525Z 33006KT 04/04 A3021 RMK A01 T00440042  RH  099%=      5-min Rain = 0
KCO1 161526Z 32005KT 05/04 A3021 RMK A01 T00450044  RH  099%=      5-min Rain = 0
KCO1 161527Z 33005KT 05/04 A3021 RMK A01 T00460044  RH  099%=      5-min Rain = 0
KCO1 161528Z 34005KT 05/05 A3021 RMK A01 T00460045  RH  099%=      5-min Rain = 0
KCO1 161529Z 34005KT 05/05 A3021 RMK A01 T00470045  RH  099%=      5-min Rain = 0
KCO1 161530Z 33005KT 05/05 A3021 RMK A01 T00470045  RH  099%=      5-min Rain = 0
KCO1 161531Z 33005KT 05/05 A3021 RMK A01 T00470045  RH  099%=      5-min Rain = 0
KCO1 161532Z 33004KT 05/05 A3021 RMK A01 T00470045  RH  099%=      5-min Rain = 0
KCO1 161533Z 33004KT 05/05 A3021 RMK A01 T00470045  RH  099%=      5-min Rain = 0
KCO1 161534Z 33003KT 05/05 A3021 RMK A01 T00480046  RH  099%=      5-min Rain = 0
KCO1 161535Z 35003KT 05/05 A3021 RMK A01 T00480046  RH  099%=      5-min Rain = 0
KCO1 161536Z 34004KT 05/05 A3021 RMK A01 T00490047  RH  099%=      5-min Rain = 0
KCO1 161537Z 35003KT 05/05 A3021 RMK A01 T00500048  RH  099%=      5-min Rain = 0
KCO1 161538Z 35003KT 05/05 A3021 RMK A01 T00510049  RH  099%=      5-min Rain = 0
KCO1 161539Z 35003KT 05/05 A3021 RMK A01 T00510049  RH  098%=      5-min Rain = 0
KCO1 161540Z 01003KT 05/05 A302 RMK A01 T00510049  RH  098%=      5-min Rain = 0
KCO1 161541Z 01002KT 05/05 A302 RMK A01 T00510049  RH  098%=      5-min Rain = 0
KCO1 161542Z 34003KT 05/05 A302 RMK A01 T00530050  RH  098%=      5-min Rain = 0
KCO1 161543Z 35003KT 05/05 A302 RMK A01 T00530051  RH  098%=      5-min Rain = 0
KCO1 161544Z 35003KT 05/05 A302 RMK A01 T00530050  RH  098%=      5-min Rain = 0
KCO1 161545Z 01002KT 05/05 A302 RMK A01 T00530049  RH  098%=      5-min Rain = 0
KCO1 161546Z 01002KT 05/05 A302 RMK A01 T00530050  RH  098%=      5-min Rain = 0
KCO1 161547Z 03001KT 05/05 A302 RMK A01 T00540051  RH  098%=      5-min Rain = 0
KCO1 161548Z 02001KT 06/05 A302 RMK A01 T00560052  RH  098%=      5-min Rain = 0
KCO1 161549Z 06001KT 06/05 A302 RMK A01 T00570054  RH  098%=      5-min Rain = 0
KCO1 161550Z 09001KT 06/06 A302 RMK A01 T00590056  RH  098%=      5-min Rain = 0
KCO1 161551Z 10001KT 06/06 A302 RMK A01 T00600056  RH  098%=      5-min Rain = 0
KCO1 161552Z 10001KT 06/06 A302 RMK A01 T00610057  RH  098%=      5-min Rain = 0
KCO1 161553Z 11001KT 06/06 A302 RMK A01 T00610057  RH  097%=      5-min Rain = 0
KCO1 161554Z 15001KT 06/06 A302 RMK A01 T00610057  RH  097%=      5-min Rain = 0
KCO1 161555Z 22001KT 06/06 A302 RMK A01 T00630058  RH  097%=      5-min Rain = 0
KCO1 161556Z 20001KT 06/06 A302 RMK A01 T00630058  RH  097%=      5-min Rain = 0
KCO1 161557Z 17002KT 06/06 A302 RMK A01 T00630058  RH  096%=      5-min Rain = 0
KCO1 161558Z 20002KT 06/06 A302 RMK A01 T00640058  RH  096%=      5-min Rain = 0
KCO1 161559Z 21001KT 06/06 A302 RMK A01 T00640058  RH  096%=      5-min Rain = 0
KCO1 161600Z 23001KT 06/06 A3021 RMK A01 T00640057  RH  095%=      5-min Rain = 0
KCO1 161601Z 23002KT 07/06 A3021 RMK A01 T00660059  RH  095%=      5-min Rain = 0
KCO1 161602Z 24001KT 07/06 A3021 RMK A01 T00680060  RH  095%=      5-min Rain = 0
KCO1 161603Z 20002KT 07/06 A3021 RMK A01 T00680059  RH  094%=      5-min Rain = 0
KCO1 161604Z 23002KT 07/06 A3021 RMK A01 T00680058  RH  093%=      5-min Rain = 0
KCO1 161605Z 17001KT 07/06 A302 RMK A01 T00700060  RH  093%=      5-min Rain = 0
KCO1 161606Z 21002KT 07/06 A3021 RMK A01 T00720060  RH  092%=      5-min Rain = 0
KCO1 161607Z 23003KT 07/06 A3021 RMK A01 T00730060  RH  091%=      5-min Rain = 0
KCO1 161608Z 18002KT 08/06 A3021 RMK A01 T00750061  RH  091%=      5-min Rain = 0
KCO1 161609Z 20003KT 08/06 A3021 RMK A01 T00760061  RH  090%=      5-min Rain = 0
KCO1 161610Z 22003KT 08/06 A3021 RMK A01 T00770060  RH  089%=      5-min Rain = 0
KCO1 161611Z 18002KT 08/06 A3021 RMK A01 T00780061  RH  089%=      5-min Rain = 0
KCO1 161612Z 21001KT 08/06 A3021 RMK A01 T00800060  RH  088%=      5-min Rain = 0
KCO1 161613Z 20001KT 08/06 A3021 RMK A01 T00820062  RH  087%=      5-min Rain = 0
KCO1 161614Z 19002KT 08/06 A3021 RMK A01 T00830062  RH  086%=      5-min Rain = 0
KCO1 161615Z 21002KT 09/06 A3021 RMK A01 T00850062  RH  085%=      5-min Rain = 0
KCO1 161616Z 20001KT 09/06 A3021 RMK A01 T00860060  RH  084%=      5-min Rain = 0
KCO1 161617Z 19002KT 09/06 A3021 RMK A01 T00870060  RH  083%=      5-min Rain = 0
KCO1 161618Z 19001KT 09/06 A3021 RMK A01 T00880060  RH  083%=      5-min Rain = 0
KCO1 161619Z 14002KT 09/06 A3021 RMK A01 T00910062  RH  082%=      5-min Rain = 0
KCO1 161620Z 16002KT 09/06 A3021 RMK A01 T00920060  RH  080%=      5-min Rain = 0
KCO1 161621Z 21001KT 09/06 A3021 RMK A01 T00930059  RH  079%=      5-min Rain = 0
KCO1 161622Z 23001KT 10/06 A3021 RMK A01 T00960061  RH  079%=      5-min Rain = 0
KCO1 161623Z 19001KT 10/06 A3021 RMK A01 T00970061  RH  078%=      5-min Rain = 0
KCO1 161624Z 19000KT 10/06 A3021 RMK A01 T00990061  RH  077%=      5-min Rain = 0
KCO1 161625Z 19001KT 10/06 A3021 RMK A01 T01010063  RH  077%=      5-min Rain = 0
KCO1 161626Z 23002KT 10/06 A3021 RMK A01 T01030064  RH  077%=      5-min Rain = 0
KCO1 161627Z 22002KT 10/06 A3021 RMK A01 T01040063  RH  076%=      5-min Rain = 0
KCO1 161628Z 24001KT 11/06 A3021 RMK A01 T01050064  RH  076%=      5-min Rain = 0
KCO1 161629Z 24001KT 11/06 A3021 RMK A01 T01060064  RH  075%=      5-min Rain = 0
KCO1 161630Z 18001KT 11/07 A3021 RMK A01 T01070065  RH  075%=      5-min Rain = 0
KCO1 161631Z 18001KT 11/06 A3022 RMK A01 T01070064  RH  074%=      5-min Rain = 0
KCO1 161632Z 21002KT 11/07 A3022 RMK A01 T01080065  RH  075%=      5-min Rain = 0
KCO1 161633Z 25002KT 11/07 A3022 RMK A01 T01090065  RH  074%=      5-min Rain = 0
KCO1 161634Z 21002KT 11/07 A3022 RMK A01 T01090065  RH  074%=      5-min Rain = 0
KCO1 161635Z 20002KT 11/07 A3022 RMK A01 T01090065  RH  074%=      5-min Rain = 0
KCO1 161636Z 19002KT 11/06 A3022 RMK A01 T01090064  RH  073%=      5-min Rain = 0
KCO1 161637Z 20002KT 11/06 A3022 RMK A01 T01100064  RH  074%=      5-min Rain = 0
KCO1 161638Z 20002KT 11/07 A3022 RMK A01 T01110065  RH  073%=      5-min Rain = 0
KCO1 161639Z 21002KT 11/07 A3022 RMK A01 T01130067  RH  074%=      5-min Rain = 0
KCO1 161640Z 18001KT 12/07 A3022 RMK A01 T01150068  RH  073%=      5-min Rain = 0
KCO1 161641Z 18001KT 12/07 A3022 RMK A01 T01170068  RH  072%=      5-min Rain = 0
KCO1 161642Z 21003KT 12/07 A3022 RMK A01 T01200069  RH  071%=      5-min Rain = 0
KCO1 161643Z 22002KT 12/07 A3022 RMK A01 T01210068  RH  070%=      5-min Rain = 0
KCO1 161644Z 21001KT 12/07 A3022 RMK A01 T01210067  RH  070%=      5-min Rain = 0
KCO1 161645Z 21002KT 12/07 A3022 RMK A01 T01200067  RH  070%=      5-min Rain = 0
KCO1 161646Z 23002KT 12/07 A3022 RMK A01 T01210069  RH  070%=      5-min Rain = 0
KCO1 161647Z 20002KT 12/07 A3022 RMK A01 T01210068  RH  070%=      5-min Rain = 0
KCO1 161648Z 22002KT 12/07 A3022 RMK A01 T01200067  RH  070%=      5-min Rain = 0
KCO1 161649Z 23003KT 12/07 A3022 RMK A01 T01200068  RH  070%=      5-min Rain = 0
KCO1 161650Z 22002KT 12/07 A3022 RMK A01 T01200066  RH  070%=      5-min Rain = 0
KCO1 161651Z 22002KT 12/07 A3022 RMK A01 T01190067  RH  070%=      5-min Rain = 0
KCO1 161652Z 28001KT 12/07 A3022 RMK A01 T01200067  RH  070%=      5-min Rain = 0
KCO1 161653Z 30002KT 12/07 A3022 RMK A01 T01210070  RH  071%=      5-min Rain = 0
KCO1 161654Z 30003KT 12/07 A3022 RMK A01 T01220068  RH  069%=      5-min Rain = 0
KCO1 161655Z 29002KT 12/07 A3022 RMK A01 T01210066  RH  069%=      5-min Rain = 0
KCO1 161656Z 31002KT 12/07 A3022 RMK A01 T01200068  RH  071%=      5-min Rain = 0
KCO1 161657Z 29002KT 12/07 A3022 RMK A01 T01210070  RH  071%=      5-min Rain = 0
KCO1 161658Z 27002KT 12/07 A3022 RMK A01 T01220068  RH  070%=      5-min Rain = 0
KCO1 161659Z 28001KT 12/07 A3022 RMK A01 T01230068  RH  069%=      5-min Rain = 0
KCO1 161700Z 29001KT 12/07 A3022 RMK A01 T01230069  RH  069%=      5-min Rain = 0
KCO1 161701Z 32001KT 12/07 A3022 RMK A01 T01240068  RH  069%=      5-min Rain = 0
KCO1 161702Z 32002KT 13/07 A3022 RMK A01 T01250070  RH  069%=      5-min Rain = 0
KCO1 161703Z 33001KT 13/07 A3022 RMK A01 T01260072  RH  069%=      5-min Rain = 0
KCO1 161704Z 32001KT 13/07 A3022 RMK A01 T01270070  RH  068%=      5-min Rain = 0
KCO1 161705Z 02001KT 13/07 A3022 RMK A01 T01270067  RH  067%=      5-min Rain = 0
KCO1 161706Z 00000KT 13/07 A3022 RMK A01 T01270069  RH  068%=      5-min Rain = 0
KCO1 161707Z 34001KT 13/07 A3022 RMK A01 T01290070  RH  067%=      5-min Rain = 0
KCO1 161708Z 36001KT 13/07 A3022 RMK A01 T01300070  RH  067%=      5-min Rain = 0
KCO1 161709Z 35002KT 13/07 A3022 RMK A01 T01300068  RH  066%=      5-min Rain = 0
KCO1 161710Z 33001KT 13/07 A3022 RMK A01 T01300068  RH  066%=      5-min Rain = 0
KCO1 161711Z 34001KT 13/07 A3022 RMK A01 T01300069  RH  066%=      5-min Rain = 0
KCO1 161712Z 30002KT 13/07 A3022 RMK A01 T01300069  RH  066%=      5-min Rain = 0
KCO1 161713Z 29001KT 13/07 A3022 RMK A01 T01310071  RH  067%=      5-min Rain = 0
KCO1 161714Z 31001KT 13/07 A3022 RMK A01 T01340074  RH  067%=      5-min Rain = 0
KCO1 161715Z 29002KT 14/07 A3022 RMK A01 T01360074  RH  066%=      5-min Rain = 0
KCO1 161716Z 28002KT 14/07 A3022 RMK A01 T01370073  RH  065%=      5-min Rain = 0
KCO1 161717Z 26002KT 14/07 A3022 RMK A01 T01390074  RH  065%=      5-min Rain = 0
KCO1 161718Z 27001KT 14/07 A3022 RMK A01 T01400073  RH  064%=      5-min Rain = 0
KCO1 161719Z 28002KT 14/07 A3022 RMK A01 T01400073  RH  064%=      5-min Rain = 0
KCO1 161720Z 28001KT 14/08 A3022 RMK A01 T01410075  RH  064%=      5-min Rain = 0
KCO1 161721Z 27002KT 14/08 A3022 RMK A01 T01420075  RH  064%=      5-min Rain = 0
KCO1 161722Z 30001KT 14/07 A3022 RMK A01 T01420072  RH  063%=      5-min Rain = 0
KCO1 161723Z 33001KT 14/07 A3022 RMK A01 T01410071  RH  063%=      5-min Rain = 0
KCO1 161724Z 31001KT 14/07 A3022 RMK A01 T01400072  RH  063%=      5-min Rain = 0
KCO1 161725Z 30001KT 14/08 A3022 RMK A01 T01410075  RH  065%=      5-min Rain = 0
KCO1 161726Z 27001KT 14/08 A3022 RMK A01 T01430075  RH  063%=      5-min Rain = 0
KCO1 161727Z 25001KT 14/07 A3022 RMK A01 T01440072  RH  062%=      5-min Rain = 0
KCO1 161728Z 32000KT 15/08 A3022 RMK A01 T01460075  RH  063%=      5-min Rain = 0
KCO1 161729Z 30002KT 15/08 A3021 RMK A01 T01470075  RH  062%=      5-min Rain = 0
KCO1 161730Z 30001KT 15/07 A3021 RMK A01 T01480073  RH  061%=      5-min Rain = 0
KCO1 161731Z 30000KT 15/07 A3021 RMK A01 T01480073  RH  061%=      5-min Rain = 0
KCO1 161732Z 31000KT 15/07 A3021 RMK A01 T01480074  RH  061%=      5-min Rain = 0
KCO1 161733Z 30002KT 15/08 A3021 RMK A01 T01500076  RH  061%=      5-min Rain = 0
KCO1 161734Z 29003KT 15/08 A3021 RMK A01 T01520076  RH  061%=      5-min Rain = 0
KCO1 161735Z 28002KT 15/08 A3021 RMK A01 T01520076  RH  060%=      5-min Rain = 0
KCO1 161736Z 28001KT 15/08 A3021 RMK A01 T01540077  RH  060%=      5-min Rain = 0
KCO1 161737Z 28001KT 16/08 A3021 RMK A01 T01550076  RH  059%=      5-min Rain = 0
KCO1 161738Z 29002KT 16/08 A3021 RMK A01 T01560076  RH  059%=      5-min Rain = 0
KCO1 161739Z 26002KT 16/08 A3021 RMK A01 T01560076  RH  059%=      5-min Rain = 0
KCO1 161740Z 21001KT 16/08 A3021 RMK A01 T01560075  RH  058%=      5-min Rain = 0
KCO1 161741Z 25002KT 16/07 A3021 RMK A01 T01560074  RH  058%=      5-min Rain = 0
KCO1 161742Z 24001KT 16/07 A302 RMK A01 T01560074  RH  058%=      5-min Rain = 0
KCO1 161743Z 23001KT 16/08 A302 RMK A01 T01560076  RH  059%=      5-min Rain = 0
KCO1 161744Z 25001KT 16/08 A302 RMK A01 T01570076  RH  059%=      5-min Rain = 0
KCO1 161745Z 28002KT 16/08 A302 RMK A01 T01570075  RH  058%=      5-min Rain = 0
KCO1 161746Z 28002KT 16/08 A302 RMK A01 T01570077  RH  059%=      5-min Rain = 0
KCO1 161747Z 29002KT 16/08 A302 RMK A01 T01580077  RH  059%=      5-min Rain = 0
KCO1 161748Z 29002KT 16/08 A302 RMK A01 T01590076  RH  058%=      5-min Rain = 0
KCO1 161749Z 30001KT 16/08 A302 RMK A01 T01590076  RH  058%=      5-min Rain = 0
KCO1 161750Z 25001KT 16/08 A302 RMK A01 T01590076  RH  058%=      5-min Rain = 0
KCO1 161751Z 25001KT 16/08 A302 RMK A01 T01590077  RH  058%=      5-min Rain = 0
KCO1 161752Z 28001KT 16/08 A302 RMK A01 T01610077  RH  057%=      5-min Rain = 0
KCO1 161753Z 27001KT 16/08 A302 RMK A01 T01620076  RH  057%=      5-min Rain = 0
KCO1 161754Z 28001KT 16/08 A302 RMK A01 T01640080  RH  057%=      5-min Rain = 0
KCO1 161755Z 28001KT 17/08 A302 RMK A01 T01660078  RH  056%=      5-min Rain = 0
KCO1 161756Z 30002KT 17/08 A302 RMK A01 T01660079  RH  056%=      5-min Rain = 0
KCO1 161757Z 33002KT 17/08 A302 RMK A01 T01670080  RH  056%=      5-min Rain = 0
KCO1 161758Z 30002KT 17/08 A302 RMK A01 T01660079  RH  056%=      5-min Rain = 0
KCO1 161759Z 30002KT 17/08 A3019 RMK A01 T01670082  RH  057%=      5-min Rain = 0
KCO1 161800Z 32002KT 17/08 A3019 RMK A01 T01700081  RH  056%=      5-min Rain = 0
KCO1 161801Z 31003KT 17/08 A3019 RMK A01 T01710081  RH  055%=      5-min Rain = 0
KCO1 161802Z 32003KT 17/08 A3019 RMK A01 T01710080  RH  055%=      5-min Rain = 0
KCO1 161803Z 32002KT 17/08 A3019 RMK A01 T01710081  RH  055%=      5-min Rain = 0
KCO1 161804Z 24002KT 17/08 A3019 RMK A01 T01720082  RH  055%=      5-min Rain = 0
KCO1 161805Z 29003KT 17/08 A3019 RMK A01 T01730081  RH  055%=      5-min Rain = 0
KCO1 161806Z 28004KT 18/08 A3019 RMK A01 T01750081  RH  054%=      5-min Rain = 0
KCO1 161807Z 29004KT 17/08 A3019 RMK A01 T01740082  RH  055%=      5-min Rain = 0
KCO1 161808Z 30003KT 17/08 A3019 RMK A01 T01740080  RH  054%=      5-min Rain = 0
KCO1 161809Z 32003KT 17/08 A3019 RMK A01 T01740080  RH  054%=      5-min Rain = 0
KCO1 161810Z 28001KT 17/08 A3019 RMK A01 T01740080  RH  054%=      5-min Rain = 0
KCO1 161811Z 30001KT 17/08 A3019 RMK A01 T01740079  RH  054%=      5-min Rain = 0
KCO1 161812Z 27002KT 18/08 A3019 RMK A01 T01750083  RH  055%=      5-min Rain = 0
KCO1 161813Z 26003KT 18/08 A3019 RMK A01 T01780084  RH  054%=      5-min Rain = 0
KCO1 161814Z 30003KT 18/08 A3019 RMK A01 T01800083  RH  053%=      5-min Rain = 0
KCO1 161815Z 30004KT 18/08 A3019 RMK A01 T01810083  RH  053%=      5-min Rain = 0
KCO1 161816Z 31003KT 18/09 A3019 RMK A01 T01810085  RH  053%=      5-min Rain = 0
KCO1 161817Z 31003KT 18/08 A3019 RMK A01 T01820083  RH  052%=      5-min Rain = 0
KCO1 161818Z 32003KT 18/08 A3019 RMK A01 T01820082  RH  052%=      5-min Rain = 0
KCO1 161819Z 32004KT 18/08 A3019 RMK A01 T01820084  RH  053%=      5-min Rain = 0
KCO1 161820Z 33003KT 18/08 A3019 RMK A01 T01820083  RH  052%=      5-min Rain = 0
KCO1 161821Z 33003KT 18/09 A3019 RMK A01 T01830086  RH  053%=      5-min Rain = 0
KCO1 161822Z 33003KT 18/09 A3018 RMK A01 T01840085  RH  052%=      5-min Rain = 0
KCO1 161823Z 35005KT 18/08 A3018 RMK A01 T01840084  RH  052%=      5-min Rain = 0
KCO1 161824Z 31003KT 18/08 A3018 RMK A01 T01830083  RH  052%=      5-min Rain = 0
KCO1 161825Z 00003KT 18/09 A3018 RMK A01 T01840085  RH  053%=      5-min Rain = 0
KCO1 161826Z 36004KT 19/09 A3018 RMK A01 T01850085  RH  052%=      5-min Rain = 0
KCO1 161827Z 36003KT 19/08 A3018 RMK A01 T01850083  RH  051%=      5-min Rain = 0
KCO1 161828Z 35004KT 18/09 A3018 RMK A01 T01840085  RH  052%=      5-min Rain = 0
KCO1 161829Z 35004KT 19/09 A3018 RMK A01 T01850085  RH  052%=      5-min Rain = 0
KCO1 161830Z 35003KT 19/09 A3018 RMK A01 T01870086  RH  052%=      5-min Rain = 0
KCO1 161831Z 36005KT 19/09 A3017 RMK A01 T01880087  RH  052%=      5-min Rain = 0
KCO1 161832Z 02005KT 19/09 A3017 RMK A01 T01880086  RH  051%=      5-min Rain = 0
KCO1 161833Z 35004KT 19/09 A3017 RMK A01 T01880085  RH  051%=      5-min Rain = 0
KCO1 161834Z 32004KT 19/09 A3017 RMK A01 T01870085  RH  051%=      5-min Rain = 0
KCO1 161835Z 32002KT 19/08 A3017 RMK A01 T01860084  RH  051%=      5-min Rain = 0
KCO1 161836Z 36002KT 19/08 A3017 RMK A01 T01860084  RH  051%=      5-min Rain = 0
KCO1 161837Z 35002KT 19/09 A3017 RMK A01 T01870085  RH  051%=      5-min Rain = 0
KCO1 161838Z 34004KT 19/09 A3017 RMK A01 T01890085  RH  051%=      5-min Rain = 0
KCO1 161839Z 33004KT 19/09 A3017 RMK A01 T01900086  RH  051%=      5-min Rain = 0
KCO1 161840Z 34002KT 19/09 A3017 RMK A01 T01900087  RH  051%=      5-min Rain = 0
KCO1 161841Z 35005KT 19/09 A3017 RMK A01 T01900087  RH  051%=      5-min Rain = 0
KCO1 161842Z 32003KT 19/09 A3016 RMK A01 T01910088  RH  051%=      5-min Rain = 0
KCO1 161843Z 30002KT 19/09 A3016 RMK A01 T01930088  RH  050%=      5-min Rain = 0
KCO1 161844Z 31005KT 20/09 A3016 RMK A01 T01950085  RH  049%=      5-min Rain = 0
KCO1 161845Z 30005KT 20/08 A3016 RMK A01 T01960084  RH  048%=      5-min Rain = 0
KCO1 161846Z 29002KT 20/08 A3016 RMK A01 T01960082  RH  048%=      5-min Rain = 0
KCO1 161847Z 24000KT 20/08 A3016 RMK A01 T01970083  RH  048%=      5-min Rain = 0
KCO1 161848Z 33002KT 20/09 A3016 RMK A01 T01990085  RH  048%=      5-min Rain = 0
KCO1 161849Z 33005KT 20/08 A3016 RMK A01 T02000083  RH  047%=      5-min Rain = 0
KCO1 161850Z 32005KT 20/08 A3016 RMK A01 T02010083  RH  047%=      5-min Rain = 0
KCO1 161851Z 33003KT 20/08 A3016 RMK A01 T02000084  RH  047%=      5-min Rain = 0
KCO1 161852Z 27000KT 20/08 A3016 RMK A01 T02010084  RH  047%=      5-min Rain = 0
KCO1 161853Z 01002KT 20/09 A3015 RMK A01 T02020086  RH  047%=      5-min Rain = 0
KCO1 161854Z 32005KT 20/08 A3015 RMK A01 T02030082  RH  046%=      5-min Rain = 0
KCO1 161855Z 32004KT 20/09 A3015 RMK A01 T02030086  RH  047%=      5-min Rain = 0
KCO1 161856Z 34005KT 21/09 A3015 RMK A01 T02050086  RH  046%=      5-min Rain = 0
KCO1 161857Z 32004KT 21/08 A3015 RMK A01 T02050084  RH  046%=      5-min Rain = 0
KCO1 161858Z 30003KT 20/09 A3015 RMK A01 T02040086  RH  047%=      5-min Rain = 0
KCO1 161859Z 22005G11KT 21/09 A3015 RMK A01 T02060086  RH  046%=      5-min Rain = 0
KCO1 161900Z 25010KT 21/08 A3015 RMK A01 T02090080  RH  043%=      5-min Rain = 0
KCO1 161901Z 26011KT 21/08 A3014 RMK A01 T02130078  RH  042%=      5-min Rain = 0
KCO1 161902Z 26015KT 22/07 A3014 RMK A01 T02150073  RH  040%=      5-min Rain = 0
KCO1 161903Z 27012KT 21/07 A3015 RMK A01 T02140071  RH  039%=      5-min Rain = 0
KCO1 161904Z 28010G15KT 21/07 A3014 RMK A01 T02140074  RH  040%=      5-min Rain = 0
KCO1 161905Z 28012KT 21/08 A3014 RMK A01 T02140075  RH  041%=      5-min Rain = 0
KCO1 161906Z 29010KT 22/08 A3014 RMK A01 T02150076  RH  041%=      5-min Rain = 0
KCO1 161907Z 28011KT 22/07 A3014 RMK A01 T02150074  RH  040%=      5-min Rain = 0
KCO1 161908Z 28013KT 22/07 A3014 RMK A01 T02160074  RH  040%=      5-min Rain = 0
KCO1 161909Z 29013KT 22/07 A3014 RMK A01 T02160073  RH  039%=      5-min Rain = 0
KCO1 161910Z 29010KT 22/07 A3014 RMK A01 T02160073  RH  040%=      5-min Rain = 0
KCO1 161911Z 27012KT 22/07 A3014 RMK A01 T02170074  RH  040%=      5-min Rain = 0
KCO1 161912Z 27013KT 22/07 A3014 RMK A01 T02160073  RH  040%=      5-min Rain = 0
KCO1 161913Z 27012KT 22/07 A3014 RMK A01 T02160070  RH  039%=      5-min Rain = 0
KCO1 161914Z 27013KT 22/07 A3014 RMK A01 T02150072  RH  040%=      5-min Rain = 0
KCO1 161915Z 26011KT 22/07 A3014 RMK A01 T02160072  RH  039%=      5-min Rain = 0
KCO1 161916Z 27010KT 22/07 A3014 RMK A01 T02150074  RH  040%=      5-min Rain = 0
KCO1 161917Z 27011KT 22/07 A3013 RMK A01 T02150074  RH  040%=      5-min Rain = 0
KCO1 161918Z 26012KT 22/08 A3013 RMK A01 T02160075  RH  040%=      5-min Rain = 0
KCO1 161919Z 27012KT 22/08 A3013 RMK A01 T02160075  RH  040%=      5-min Rain = 0
KCO1 161920Z 26008KT 22/07 A3013 RMK A01 T02160074  RH  040%=      5-min Rain = 0
KCO1 161921Z 26008G15KT 22/07 A3013 RMK A01 T02160074  RH  040%=      5-min Rain = 0
KCO1 161922Z 26012KT 22/07 A3013 RMK A01 T02180074  RH  040%=      5-min Rain = 0
KCO1 161923Z 26013KT 22/07 A3013 RMK A01 T02190072  RH  039%=      5-min Rain = 0
KCO1 161924Z 26011KT 22/07 A3013 RMK A01 T02170070  RH  039%=      5-min Rain = 0
KCO1 161925Z 27009KT 22/07 A3013 RMK A01 T02170073  RH  039%=      5-min Rain = 0
KCO1 161926Z 28008KT 22/08 A3013 RMK A01 T02180076  RH  040%=      5-min Rain = 0
KCO1 161927Z 28009KT 22/08 A3013 RMK A01 T02210076  RH  039%=      5-min Rain = 0
KCO1 161928Z 28008KT 22/08 A3013 RMK A01 T02220076  RH  039%=      5-min Rain = 0
KCO1 161929Z 27007KT 22/08 A3013 RMK A01 T02220077  RH  039%=      5-min Rain = 0
KCO1 161930Z 27007KT 22/08 A3012 RMK A01 T02230077  RH  039%=      5-min Rain = 0
KCO1 161931Z 27008KT 22/08 A3012 RMK A01 T02230077  RH  039%=      5-min Rain = 0
KCO1 161932Z 26011KT 22/08 A3012 RMK A01 T02240078  RH  039%=      5-min Rain = 0
KCO1 161933Z 26011KT 23/08 A3012 RMK A01 T02250077  RH  039%=      5-min Rain = 0
KCO1 161934Z 26010KT 22/08 A3012 RMK A01 T02220075  RH  039%=      5-min Rain = 0
KCO1 161935Z 25011KT 22/08 A3012 RMK A01 T02210075  RH  039%=      5-min Rain = 0
KCO1 161936Z 25010KT 22/08 A3012 RMK A01 T02210076  RH  039%=      5-min Rain = 0
KCO1 161937Z 25009KT 22/08 A3012 RMK A01 T02220077  RH  039%=      5-min Rain = 0
KCO1 161938Z 27009KT 22/08 A3012 RMK A01 T02240076  RH  038%=      5-min Rain = 0
KCO1 161939Z 28012KT 23/07 A3012 RMK A01 T02250074  RH  038%=      5-min Rain = 0
KCO1 161940Z 28014KT 23/07 A3012 RMK A01 T02250072  RH  037%=      5-min Rain = 0
KCO1 161941Z 27013KT 23/07 A3012 RMK A01 T02250071  RH  037%=      5-min Rain = 0
KCO1 161942Z 27010KT 22/07 A3012 RMK A01 T02230068  RH  037%=      5-min Rain = 0
KCO1 161943Z 28010G15KT 22/07 A3012 RMK A01 T02230070  RH  037%=      5-min Rain = 0
KCO1 161944Z 29012KT 23/07 A3012 RMK A01 T02250069  RH  037%=      5-min Rain = 0
KCO1 161945Z 30014KT 23/07 A3011 RMK A01 T02250068  RH  036%=      5-min Rain = 0
KCO1 161946Z 30011KT 23/07 A3011 RMK A01 T02250069  RH  036%=      5-min Rain = 0
KCO1 161947Z 27010KT 23/07 A3011 RMK A01 T02250070  RH  037%=      5-min Rain = 0
KCO1 161948Z 27011G18KT 23/07 A3011 RMK A01 T02270066  RH  035%=      5-min Rain = 0
KCO1 161949Z 29015KT 23/06 A3011 RMK A01 T02280063  RH  034%=      5-min Rain = 0
KCO1 161950Z 28013G18KT 23/06 A3011 RMK A01 T02280061  RH  034%=      5-min Rain = 0
KCO1 161951Z 27015KT 23/06 A3011 RMK A01 T02290061  RH  034%=      5-min Rain = 0
KCO1 161952Z 27017KT 23/06 A3011 RMK A01 T02290061  RH  034%=      5-min Rain = 0
KCO1 161953Z 28013KT 23/06 A3011 RMK A01 T02280059  RH  034%=      5-min Rain = 0
KCO1 161954Z 27012KT 23/06 A3011 RMK A01 T02270059  RH  034%=      5-min Rain = 0
KCO1 161955Z 28014KT 23/06 A3011 RMK A01 T02260058  RH  034%=      5-min Rain = 0
KCO1 161956Z 28012G18KT 22/06 A3011 RMK A01 T02230057  RH  034%=      5-min Rain = 0
KCO1 161957Z 29014KT 22/06 A3011 RMK A01 T02230058  RH  034%=      5-min Rain = 0
KCO1 161958Z 28015KT 23/06 A3011 RMK A01 T02260060  RH  034%=      5-min Rain = 0
KCO1 161959Z 28014G19KT 23/06 A3011 RMK A01 T02280059  RH  033%=      5-min Rain = 0
KCO1 162000Z 28015KT 23/06 A3011 RMK A01 T02280059  RH  034%=      5-min Rain = 0
KCO1 162001Z 28015KT 23/06 A3011 RMK A01 T02290059  RH  033%=      5-min Rain = 0
KCO1 162002Z 28013G19KT 23/06 A3011 RMK A01 T02290059  RH  033%=      5-min Rain = 0
KCO1 162003Z 27013KT 23/06 A3011 RMK A01 T02290061  RH  034%=      5-min Rain = 0
KCO1 162004Z 28015G20KT 23/06 A3011 RMK A01 T02300061  RH  034%=      5-min Rain = 0
KCO1 162005Z 28014KT 23/06 A301 RMK A01 T02280058  RH  033%=      5-min Rain = 0
KCO1 162006Z 28013KT 23/06 A301 RMK A01 T02270060  RH  034%=      5-min Rain = 0
KCO1 162007Z 29014KT 23/06 A301 RMK A01 T02280058  RH  033%=      5-min Rain = 0
KCO1 162008Z 29011KT 23/06 A301 RMK A01 T02270058  RH  033%=      5-min Rain = 0
KCO1 162009Z 27012G18KT 23/06 A301 RMK A01 T02260058  RH  034%=      5-min Rain = 0
KCO1 162010Z 26017KT 23/06 A301 RMK A01 T02260057  RH  033%=      5-min Rain = 0
KCO1 162011Z 27015KT 23/06 A301 RMK A01 T02250057  RH  033%=      5-min Rain = 0
KCO1 162012Z 27016KT 22/06 A301 RMK A01 T02240057  RH  034%=      5-min Rain = 0
KCO1 162013Z 28013KT 23/06 A301 RMK A01 T02260058  RH  034%=      5-min Rain = 0
KCO1 162014Z 29016KT 23/06 A301 RMK A01 T02270057  RH  033%=      5-min Rain = 0
KCO1 162015Z 29015KT 23/06 A301 RMK A01 T02270057  RH  033%=      5-min Rain = 0
KCO1 162016Z 29014KT 23/06 A301 RMK A01 T02280058  RH  033%=      5-min Rain = 0
KCO1 162017Z 29011G19KT 23/06 A301 RMK A01 T02290059  RH  033%=      5-min Rain = 0
KCO1 162018Z 29015KT 23/06 A3009 RMK A01 T02300059  RH  033%=      5-min Rain = 0
KCO1 162019Z 28016KT 23/06 A3009 RMK A01 T02300059  RH  033%=      5-min Rain = 0
KCO1 162020Z 29014KT 23/06 A3009 RMK A01 T02290057  RH  033%=      5-min Rain = 0
KCO1 162021Z 27015KT 23/06 A3009 RMK A01 T02270057  RH  033%=      5-min Rain = 0
KCO1 162022Z 27013KT 23/06 A3009 RMK A01 T02270058  RH  033%=      5-min Rain = 0
KCO1 162023Z 26016KT 23/06 A3009 RMK A01 T02290058  RH  033%=      5-min Rain = 0
KCO1 162024Z 27014KT 23/06 A3009 RMK A01 T02290058  RH  033%=      5-min Rain = 0
KCO1 162025Z 27012KT 23/06 A3009 RMK A01 T02300058  RH  033%=      5-min Rain = 0
KCO1 162026Z 27013KT 23/06 A3009 RMK A01 T02300057  RH  033%=      5-min Rain = 0
KCO1 162027Z 29013KT 23/06 A3009 RMK A01 T02300058  RH  033%=      5-min Rain = 0
KCO1 162028Z 28016KT 23/06 A3009 RMK A01 T02310058  RH  033%=      5-min Rain = 0
KCO1 162029Z 28012KT 23/06 A3009 RMK A01 T02310057  RH  032%=      5-min Rain = 0
KCO1 162030Z 27012KT 23/06 A301 RMK A01 T02290057  RH  033%=      5-min Rain = 0
KCO1 162031Z 26010KT 23/06 A3009 RMK A01 T02280056  RH  033%=      5-min Rain = 0
KCO1 162032Z 28013KT 23/06 A3009 RMK A01 T02290059  RH  033%=      5-min Rain = 0
KCO1 162033Z 28013KT 23/06 A3009 RMK A01 T02310058  RH  032%=      5-min Rain = 0
KCO1 162034Z 27015KT 23/06 A3009 RMK A01 T02330057  RH  032%=      5-min Rain = 0
KCO1 162035Z 26014KT 23/06 A3009 RMK A01 T02330056  RH  032%=      5-min Rain = 0
KCO1 162036Z 26012KT 23/06 A3009 RMK A01 T02320056  RH  032%=      5-min Rain = 0
KCO1 162037Z 27014KT 23/06 A3009 RMK A01 T02310055  RH  032%=      5-min Rain = 0
KCO1 162038Z 28015KT 23/05 A3009 RMK A01 T02310054  RH  032%=      5-min Rain = 0
KCO1 162039Z 27015KT 23/05 A3009 RMK A01 T02290053  RH  032%=      5-min Rain = 0
KCO1 162040Z 28014KT 23/06 A3009 RMK A01 T02290055  RH  032%=      5-min Rain = 0
KCO1 162041Z 28014KT 23/06 A3009 RMK A01 T02300055  RH  032%=      5-min Rain = 0
KCO1 162042Z 28013KT 23/06 A3009 RMK A01 T02310055  RH  032%=      5-min Rain = 0
KCO1 162043Z 29014KT 23/05 A3009 RMK A01 T02310053  RH  032%=      5-min Rain = 0
KCO1 162044Z 29012KT 23/05 A3009 RMK A01 T02310052  RH  031%=      5-min Rain = 0
KCO1 162045Z 28015G22KT 23/05 A3009 RMK A01 T02290052  RH  032%=      5-min Rain = 0
KCO1 162046Z 27015KT 23/05 A3009 RMK A01 T02300052  RH  032%=      5-min Rain = 0
KCO1 162047Z 27015KT 23/05 A3009 RMK A01 T02310052  RH  031%=      5-min Rain = 0
KCO1 162048Z 28015KT 23/05 A3009 RMK A01 T02300048  RH  031%=      5-min Rain = 0
KCO1 162049Z 28014G20KT 23/05 A3009 RMK A01 T02290046  RH  030%=      5-min Rain = 0
KCO1 162050Z 28015G20KT 23/05 A3009 RMK A01 T02290046  RH  030%=      5-min Rain = 0
KCO1 162051Z 28016KT 23/04 A3009 RMK A01 T02300042  RH  029%=      5-min Rain = 0
KCO1 162052Z 27015KT 23/04 A3009 RMK A01 T02300042  RH  030%=      5-min Rain = 0
KCO1 162053Z 28013KT 23/04 A3009 RMK A01 T02280042  RH  030%=      5-min Rain = 0
KCO1 162054Z 28015KT 23/04 A3009 RMK A01 T02280042  RH  030%=      5-min Rain = 0
KCO1 162055Z 26015KT 23/04 A3009 RMK A01 T02280041  RH  029%=      5-min Rain = 0
KCO1 162056Z 26013KT 23/04 A3009 RMK A01 T02290043  RH  030%=      5-min Rain = 0
KCO1 162057Z 26013KT 23/04 A3009 RMK A01 T02290044  RH  030%=      5-min Rain = 0
KCO1 162058Z 25014KT 23/04 A3009 RMK A01 T02270042  RH  030%=      5-min Rain = 0
KCO1 162059Z 28012G17KT 23/04 A3009 RMK A01 T02260042  RH  030%=      5-min Rain = 0
KCO1 162100Z 27016KT 23/04 A3009 RMK A01 T02270044  RH  030%=      5-min Rain = 0
KCO1 162101Z 28014KT 23/04 A3009 RMK A01 T02270044  RH  030%=      5-min Rain = 0
KCO1 162102Z 27013KT 23/05 A3009 RMK A01 T02280046  RH  031%=      5-min Rain = 0
KCO1 162103Z 27013KT 23/04 A3009 RMK A01 T02290043  RH  030%=      5-min Rain = 0
KCO1 162104Z 27015KT 23/04 A3009 RMK A01 T02290042  RH  030%=      5-min Rain = 0
KCO1 162105Z 27017KT 23/04 A3009 RMK A01 T02290041  RH  029%=      5-min Rain = 0
KCO1 162106Z 27017KT 23/04 A3009 RMK A01 T02290042  RH  030%=      5-min Rain = 0
KCO1 162107Z 28015KT 23/04 A3009 RMK A01 T02300044  RH  030%=      5-min Rain = 0
KCO1 162108Z 28016KT 23/04 A3009 RMK A01 T02310043  RH  030%=      5-min Rain = 0
KCO1 162109Z 27014KT 23/04 A3009 RMK A01 T02320043  RH  029%=      5-min Rain = 0
KCO1 162110Z 26015KT 23/04 A3009 RMK A01 T02320044  RH  029%=      5-min Rain = 0
KCO1 162111Z 26015KT 23/04 A3009 RMK A01 T02310044  RH  029%=      5-min Rain = 0
KCO1 162112Z 26015KT 23/04 A3009 RMK A01 T02310044  RH  030%=      5-min Rain = 0
KCO1 162113Z 26017KT 23/04 A3009 RMK A01 T02310044  RH  030%=      5-min Rain = 0
KCO1 162114Z 26016KT 23/04 A3009 RMK A01 T02310043  RH  029%=      5-min Rain = 0
KCO1 162115Z 27013KT 23/04 A3009 RMK A01 T02300043  RH  030%=      5-min Rain = 0
KCO1 162116Z 28015KT 23/05 A3009 RMK A01 T02310045  RH  030%=      5-min Rain = 0
KCO1 162117Z 28016KT 23/05 A3009 RMK A01 T02310046  RH  030%=      5-min Rain = 0
KCO1 162118Z 28013KT 23/04 A3009 RMK A01 T02300044  RH  030%=      5-min Rain = 0
KCO1 162119Z 27011KT 23/04 A3009 RMK A01 T02300044  RH  030%=      5-min Rain = 0
KCO1 162120Z 27014KT 23/04 A3009 RMK A01 T02300043  RH  030%=      5-min Rain = 0
KCO1 162121Z 26012KT 23/04 A3008 RMK A01 T02270041  RH  030%=      5-min Rain = 0
KCO1 162122Z 26012KT 23/04 A3008 RMK A01 T02260042  RH  030%=      5-min Rain = 0
KCO1 162123Z 27012KT 23/04 A3008 RMK A01 T02260044  RH  030%=      5-min Rain = 0
KCO1 162124Z 27013KT 23/05 A3008 RMK A01 T02280046  RH  030%=      5-min Rain = 0
KCO1 162125Z 26012KT 23/05 A3008 RMK A01 T02300046  RH  030%=      5-min Rain = 0
KCO1 162126Z 26011KT 23/05 A3008 RMK A01 T02300045  RH  030%=      5-min Rain = 0
KCO1 162127Z 26010KT 23/05 A3008 RMK A01 T02290046  RH  030%=      5-min Rain = 0
KCO1 162128Z 27010G16KT 23/05 A3008 RMK A01 T02280048  RH  031%=      5-min Rain = 0
KCO1 162129Z 27015KT 23/05 A3008 RMK A01 T02290047  RH  031%=      5-min Rain = 0
KCO1 162130Z 27013KT 23/05 A3008 RMK A01 T02280047  RH  031%=      5-min Rain = 0
KCO1 162131Z 27012KT 23/05 A3008 RMK A01 T02280048  RH  031%=      5-min Rain = 0
KCO1 162132Z 28011KT 23/05 A3008 RMK A01 T02270047  RH  031%=      5-min Rain = 0
KCO1 162133Z 28014KT 23/05 A3008 RMK A01 T02270047  RH  031%=      5-min Rain = 0
KCO1 162134Z 27012KT 23/05 A3008 RMK A01 T02250047  RH  031%=      5-min Rain = 0
KCO1 162135Z 27013KT 23/05 A3008 RMK A01 T02250048  RH  032%=      5-min Rain = 0
KCO1 162136Z 27011KT 22/05 A3008 RMK A01 T02240049  RH  032%=      5-min Rain = 0
KCO1 162137Z 26009KT 22/05 A3008 RMK A01 T02240049  RH  032%=      5-min Rain = 0
KCO1 162138Z 26010KT 22/05 A3008 RMK A01 T02240049  RH  032%=      5-min Rain = 0
KCO1 162139Z 26009KT 22/05 A3008 RMK A01 T02230049  RH  032%=      5-min Rain = 0
KCO1 162140Z 26011KT 22/05 A3008 RMK A01 T02230049  RH  032%=      5-min Rain = 0
KCO1 162141Z 26011KT 22/05 A3008 RMK A01 T02230048  RH  032%=      5-min Rain = 0
KCO1 162142Z 26011KT 22/05 A3008 RMK A01 T02220048  RH  032%=      5-min Rain = 0
KCO1 162143Z 26012KT 22/05 A3008 RMK A01 T02220049  RH  032%=      5-min Rain = 0
KCO1 162144Z 26012KT 22/05 A3008 RMK A01 T02210049  RH  033%=      5-min Rain = 0
KCO1 162145Z 26012KT 22/05 A3008 RMK A01 T02210049  RH  033%=      5-min Rain = 0
KCO1 162146Z 26013KT 22/05 A3008 RMK A01 T02210049  RH  033%=      5-min Rain = 0
KCO1 162147Z 27011KT 22/05 A3008 RMK A01 T02210050  RH  033%=      5-min Rain = 0
KCO1 162148Z 27011KT 22/05 A3008 RMK A01 T02220052  RH  033%=      5-min Rain = 0
KCO1 162149Z 27010KT 22/05 A3008 RMK A01 T02230053  RH  033%=      5-min Rain = 0
KCO1 162150Z 26009KT 23/05 A3008 RMK A01 T02250054  RH  033%=      5-min Rain = 0
KCO1 162151Z 26008KT 23/05 A3007 RMK A01 T02260054  RH  033%=      5-min Rain = 0
KCO1 162152Z 25009KT 23/05 A3008 RMK A01 T02260054  RH  033%=      5-min Rain = 0
KCO1 162153Z 26008KT 23/06 A3007 RMK A01 T02270055  RH  033%=      5-min Rain = 0
KCO1 162154Z 26009KT 23/06 A3008 RMK A01 T02280056  RH  033%=      5-min Rain = 0
KCO1 162155Z 25011KT 23/06 A3008 RMK A01 T02290055  RH  032%=      5-min Rain = 0
KCO1 162156Z 25014KT 23/06 A3008 RMK A01 T02290055  RH  032%=      5-min Rain = 0
KCO1 162157Z 27013KT 23/06 A3008 RMK A01 T02290055  RH  032%=      5-min Rain = 0
KCO1 162158Z 26012KT 23/06 A3008 RMK A01 T02290056  RH  033%=      5-min Rain = 0
KCO1 162159Z 26011KT 23/06 A3008 RMK A01 T02290056  RH  033%=      5-min Rain = 0
KCO1 162200Z 25009KT 23/06 A3008 RMK A01 T02290057  RH  033%=      5-min Rain = 0
KCO1 162201Z 26010KT 23/06 A3008 RMK A01 T02290057  RH  033%=      5-min Rain = 0
KCO1 162202Z 28010KT 23/06 A3008 RMK A01 T02300058  RH  033%=      5-min Rain = 0
KCO1 162203Z 27010KT 23/06 A3008 RMK A01 T02300058  RH  033%=      5-min Rain = 0
KCO1 162204Z 28011KT 23/06 A3008 RMK A01 T02300059  RH  033%=      5-min Rain = 0
KCO1 162205Z 27010KT 23/06 A3008 RMK A01 T02310058  RH  033%=      5-min Rain = 0
KCO1 162206Z 28010KT 23/06 A3008 RMK A01 T02310060  RH  033%=      5-min Rain = 0
KCO1 162207Z 28012KT 23/06 A3008 RMK A01 T02320058  RH  032%=      5-min Rain = 0
KCO1 162208Z 28011KT 23/06 A3007 RMK A01 T02320057  RH  032%=      5-min Rain = 0
KCO1 162209Z 26012KT 23/06 A3008 RMK A01 T02310057  RH  032%=      5-min Rain = 0
KCO1 162210Z 27012KT 23/06 A3008 RMK A01 T02310056  RH  032%=      5-min Rain = 0
KCO1 162211Z 26013KT 23/06 A3008 RMK A01 T02310057  RH  032%=      5-min Rain = 0
KCO1 162212Z 27012KT 23/06 A3008 RMK A01 T02310056  RH  032%=      5-min Rain = 0
KCO1 162213Z 27012KT 23/06 A3008 RMK A01 T02320056  RH  032%=      5-min Rain = 0
KCO1 162214Z 26013KT 23/05 A3008 RMK A01 T02310054  RH  032%=      5-min Rain = 0
KCO1 162215Z 27014KT 23/06 A3008 RMK A01 T02300055  RH  032%=      5-min Rain = 0
KCO1 162216Z 26014KT 23/05 A3008 RMK A01 T02300054  RH  032%=      5-min Rain = 0
KCO1 162217Z 26014KT 23/05 A3008 RMK A01 T02300054  RH  032%=      5-min Rain = 0
KCO1 162218Z 26013KT 23/05 A3008 RMK A01 T02300053  RH  032%=      5-min Rain = 0
KCO1 162219Z 27012KT 23/05 A3008 RMK A01 T02290053  RH  032%=      5-min Rain = 0
KCO1 162220Z 26013KT 23/05 A3008 RMK A01 T02290054  RH  032%=      5-min Rain = 0
KCO1 162221Z 26011KT 23/05 A3008 RMK A01 T02280054  RH  032%=      5-min Rain = 0
KCO1 162222Z 25011KT 23/06 A3008 RMK A01 T02280055  RH  033%=      5-min Rain = 0
KCO1 162223Z 26010KT 23/06 A3008 RMK A01 T02280055  RH  033%=      5-min Rain = 0
KCO1 162224Z 26013KT 23/05 A3008 RMK A01 T02280054  RH  032%=      5-min Rain = 0
KCO1 162225Z 27011KT 23/06 A3008 RMK A01 T02280055  RH  032%=      5-min Rain = 0
KCO1 162226Z 27011KT 23/06 A3008 RMK A01 T02280055  RH  033%=      5-min Rain = 0
KCO1 162227Z 26009KT 23/06 A3008 RMK A01 T02280057  RH  033%=      5-min Rain = 0
KCO1 162228Z 26011KT 23/06 A3008 RMK A01 T02290056  RH  033%=      5-min Rain = 0
KCO1 162229Z 26010KT 23/06 A3008 RMK A01 T02280056  RH  033%=      5-min Rain = 0
KCO1 162230Z 26010KT 23/06 A3008 RMK A01 T02290057  RH  033%=      5-min Rain = 0
KCO1 162231Z 25010KT 23/06 A3008 RMK A01 T02290057  RH  033%=      5-min Rain = 0
KCO1 162232Z 25011KT 23/06 A3008 RMK A01 T02290055  RH  032%=      5-min Rain = 0
KCO1 162233Z 26011KT 23/06 A3008 RMK A01 T02280056  RH  033%=      5-min Rain = 0
KCO1 162234Z 26011KT 23/06 A3008 RMK A01 T02280056  RH  033%=      5-min Rain = 0
KCO1 162235Z 26010KT 23/06 A3008 RMK A01 T02270056  RH  033%=      5-min Rain = 0
KCO1 162236Z 25009KT 23/06 A3008 RMK A01 T02270057  RH  033%=      5-min Rain = 0
KCO1 162237Z 26010KT 23/06 A3008 RMK A01 T02280057  RH  033%=      5-min Rain = 0
KCO1 162238Z 26008KT 23/06 A3008 RMK A01 T02280057  RH  033%=      5-min Rain = 0
KCO1 162239Z 26008KT 23/06 A3008 RMK A01 T02280058  RH  033%=      5-min Rain = 0
KCO1 162240Z 26008KT 23/06 A3008 RMK A01 T02280058  RH  033%=      5-min Rain = 0
KCO1 162241Z 25010KT 23/06 A3008 RMK A01 T02280057  RH  033%=      5-min Rain = 0
KCO1 162242Z 26009KT 23/06 A3008 RMK A01 T02270057  RH  033%=      5-min Rain = 0
KCO1 162243Z 27008KT 23/06 A3008 RMK A01 T02270058  RH  033%=      5-min Rain = 0
KCO1 162244Z 25006KT 23/06 A3008 RMK A01 T02270058  RH  033%=      5-min Rain = 0
KCO1 162245Z 25006KT 23/06 A3008 RMK A01 T02270059  RH  034%=      5-min Rain = 0
KCO1 162246Z 25008KT 23/06 A3008 RMK A01 T02280058  RH  033%=      5-min Rain = 0
KCO1 162247Z 25007KT 23/06 A3008 RMK A01 T02270057  RH  033%=      5-min Rain = 0
KCO1 162248Z 25007KT 23/06 A3008 RMK A01 T02260057  RH  033%=      5-min Rain = 0
KCO1 162249Z 24007KT 23/06 A3008 RMK A01 T02260058  RH  034%=      5-min Rain = 0
KCO1 162250Z 24008KT 23/06 A3007 RMK A01 T02260058  RH  034%=      5-min Rain = 0
KCO1 162251Z 24007KT 23/06 A3007 RMK A01 T02270058  RH  034%=      5-min Rain = 0
KCO1 162252Z 24008KT 23/06 A3007 RMK A01 T02270059  RH  034%=      5-min Rain = 0
KCO1 162253Z 25009KT 23/06 A3007 RMK A01 T02280059  RH  033%=      5-min Rain = 0
KCO1 162254Z 25006KT 23/06 A3007 RMK A01 T02270058  RH  033%=      5-min Rain = 0
KCO1 162255Z 24007KT 23/06 A3007 RMK A01 T02270059  RH  034%=      5-min Rain = 0
KCO1 162256Z 25008KT 23/06 A3007 RMK A01 T02270058  RH  033%=      5-min Rain = 0
KCO1 162257Z 24010KT 23/06 A3008 RMK A01 T02270058  RH  033%=      5-min Rain = 0
KCO1 162258Z 25013KT 23/06 A3008 RMK A01 T02280058  RH  033%=      5-min Rain = 0
KCO1 162259Z 25010KT 23/06 A3008 RMK A01 T02270057  RH  033%=      5-min Rain = 0
KCO1 162300Z 25008KT 23/06 A3008 RMK A01 T02270058  RH  033%=      5-min Rain = 0
KCO1 162301Z 25009KT 23/06 A3008 RMK A01 T02270058  RH  033%=      5-min Rain = 0
KCO1 162302Z 25009KT 23/06 A3008 RMK A01 T02270057  RH  033%=      5-min Rain = 0
KCO1 162303Z 24010KT 23/06 A3008 RMK A01 T02270057  RH  033%=      5-min Rain = 0
KCO1 162304Z 25011KT 23/06 A3008 RMK A01 T02270057  RH  033%=      5-min Rain = 0
KCO1 162305Z 25009KT 23/06 A3008 RMK A01 T02270056  RH  033%=      5-min Rain = 0
KCO1 162306Z 25010KT 23/06 A3008 RMK A01 T02270057  RH  033%=      5-min Rain = 0
KCO1 162307Z 24010KT 23/06 A3007 RMK A01 T02270058  RH  033%=      5-min Rain = 0
KCO1 162308Z 24010KT 23/06 A3007 RMK A01 T02270057  RH  033%=      5-min Rain = 0
KCO1 162309Z 24010KT 23/06 A3007 RMK A01 T02260058  RH  033%=      5-min Rain = 0
KCO1 162310Z 25009KT 23/06 A3007 RMK A01 T02270058  RH  034%=      5-min Rain = 0
KCO1 162311Z 24008KT 23/06 A3007 RMK A01 T02260058  RH  034%=      5-min Rain = 0
KCO1 162312Z 24009KT 23/06 A3007 RMK A01 T02260058  RH  034%=      5-min Rain = 0
KCO1 162313Z 24010KT 23/06 A3007 RMK A01 T02270057  RH  033%=      5-min Rain = 0
KCO1 162314Z 25010KT 23/06 A3007 RMK A01 T02260056  RH  033%=      5-min Rain = 0
KCO1 162315Z 25010KT 23/06 A3007 RMK A01 T02260056  RH  033%=      5-min Rain = 0
KCO1 162316Z 25009KT 23/06 A3007 RMK A01 T02260055  RH  033%=      5-min Rain = 0
KCO1 162317Z 25008KT 23/05 A3007 RMK A01 T02250054  RH  033%=      5-min Rain = 0
KCO1 162318Z 24009KT 22/05 A3007 RMK A01 T02240054  RH  033%=      5-min Rain = 0
KCO1 162319Z 25008KT 22/05 A3007 RMK A01 T02240053  RH  033%=      5-min Rain = 0
KCO1 162320Z 24006KT 22/05 A3007 RMK A01 T02230052  RH  033%=      5-min Rain = 0
KCO1 162321Z 25006KT 22/05 A3007 RMK A01 T02220053  RH  033%=      5-min Rain = 0
KCO1 162322Z 26006KT 22/05 A3007 RMK A01 T02200054  RH  034%=      5-min Rain = 0
KCO1 162323Z 26006KT 22/05 A3008 RMK A01 T02190054  RH  034%=      5-min Rain = 0
KCO1 162324Z 26008KT 22/05 A3007 RMK A01 T02170053  RH  034%=      5-min Rain = 0
KCO1 162325Z 25008KT 22/05 A3007 RMK A01 T02160051  RH  034%=      5-min Rain = 0
KCO1 162326Z 25007KT 22/05 A3007 RMK A01 T02160051  RH  034%=      5-min Rain = 0
KCO1 162327Z 26007KT 22/05 A3007 RMK A01 T02160051  RH  034%=      5-min Rain = 0
KCO1 162328Z 25007KT 22/05 A3007 RMK A01 T02150051  RH  034%=      5-min Rain = 0
KCO1 162329Z 25007KT 22/05 A3007 RMK A01 T02150050  RH  034%=      5-min Rain = 0
KCO1 162330Z 25008KT 21/05 A3007 RMK A01 T02140050  RH  034%=      5-min Rain = 0
KCO1 162331Z 24007KT 21/05 A3007 RMK A01 T02140050  RH  034%=      5-min Rain = 0
KCO1 162332Z 25007KT 21/05 A3007 RMK A01 T02140049  RH  034%=      5-min Rain = 0
KCO1 162333Z 24007KT 21/05 A3007 RMK A01 T02130049  RH  034%=      5-min Rain = 0
KCO1 162334Z 25007KT 21/05 A3007 RMK A01 T02130049  RH  034%=      5-min Rain = 0
KCO1 162335Z 25008KT 21/05 A3007 RMK A01 T02120049  RH  034%=      5-min Rain = 0
KCO1 162336Z 25010KT 21/05 A3007 RMK A01 T02110047  RH  034%=      5-min Rain = 0
KCO1 162337Z 25009KT 21/05 A3007 RMK A01 T02110046  RH  034%=      5-min Rain = 0
KCO1 162338Z 24010KT 21/05 A3007 RMK A01 T02110046  RH  034%=      5-min Rain = 0
KCO1 162339Z 25011KT 21/04 A3007 RMK A01 T02110043  RH  033%=      5-min Rain = 0
KCO1 162340Z 25011KT 21/04 A3007 RMK A01 T02130042  RH  033%=      5-min Rain = 0
KCO1 162341Z 25009KT 21/04 A3007 RMK A01 T02140041  RH  032%=      5-min Rain = 0
KCO1 162342Z 25011KT 21/04 A3007 RMK A01 T02140041  RH  032%=      5-min Rain = 0
KCO1 162343Z 25009KT 21/04 A3007 RMK A01 T02140041  RH  032%=      5-min Rain = 0
KCO1 162344Z 25011KT 21/04 A3007 RMK A01 T02140041  RH  032%=      5-min Rain = 0
KCO1 162345Z 25012KT 21/04 A3007 RMK A01 T02130041  RH  032%=      5-min Rain = 0
KCO1 162346Z 24012G17KT 21/04 A3007 RMK A01 T02130038  RH  032%=      5-min Rain = 0
KCO1 162347Z 25012G17KT 21/04 A3007 RMK A01 T02130036  RH  031%=      5-min Rain = 0
KCO1 162348Z 25012KT 21/03 A3007 RMK A01 T02130034  RH  031%=      5-min Rain = 0
KCO1 162349Z 25013KT 21/03 A3008 RMK A01 T02130033  RH  031%=      5-min Rain = 0
KCO1 162350Z 25013KT 21/03 A3008 RMK A01 T02130028  RH  030%=      5-min Rain = 0
KCO1 162351Z 24015KT 21/03 A3008 RMK A01 T02140026  RH  029%=      5-min Rain = 0
KCO1 162352Z 24014KT 21/03 A3008 RMK A01 T02140025  RH  029%=      5-min Rain = 0
KCO1 162353Z 25013KT 22/03 A3008 RMK A01 T02150025  RH  029%=      5-min Rain = 0
KCO1 162354Z 25012KT 22/03 A3008 RMK A01 T02150026  RH  029%=      5-min Rain = 0
KCO1 162355Z 25011KT 21/03 A3008 RMK A01 T02140026  RH  029%=      5-min Rain = 0
KCO1 162356Z 25011KT 21/03 A3008 RMK A01 T02120026  RH  029%=      5-min Rain = 0
KCO1 162357Z 25010KT 21/03 A3008 RMK A01 T02110026  RH  029%=      5-min Rain = 0
KCO1 162358Z 25009KT 21/03 A3008 RMK A01 T02090026  RH  030%=      5-min Rain = 0
KCO1 162359Z 26011KT 21/03 A3008 RMK A01 T02080027  RH  030%=      5-min Rain = 0
KCO1 170000Z 26011KT 21/03 A3008 RMK A01 T02070026  RH  030%=      5-min Rain = 0
KCO1 170001Z 25010KT 21/03 A3008 RMK A01 T02060026  RH  030%=      5-min Rain = 0
KCO1 170002Z 26010KT 21/03 A3008 RMK A01 T02060026  RH  030%=      5-min Rain = 0
KCO1 170003Z 25010KT 21/03 A3008 RMK A01 T02050025  RH  030%=      5-min Rain = 0
KCO1 170004Z 26009KT 21/03 A3008 RMK A01 T02050025  RH  030%=      5-min Rain = 0
KCO1 170005Z 26011KT 20/03 A3008 RMK A01 T02040025  RH  030%=      5-min Rain = 0
KCO1 170006Z 25011KT 20/03 A3008 RMK A01 T02040025  RH  030%=      5-min Rain = 0
KCO1 170007Z 26010KT 20/02 A3008 RMK A01 T02040024  RH  030%=      5-min Rain = 0
KCO1 170008Z 26010KT 20/03 A3008 RMK A01 T02040025  RH  030%=      5-min Rain = 0
KCO1 170009Z 26010KT 20/03 A3008 RMK A01 T02030025  RH  031%=      5-min Rain = 0
KCO1 170010Z 26010KT 20/03 A3008 RMK A01 T02030025  RH  031%=      5-min Rain = 0
KCO1 170011Z 26011KT 20/03 A3008 RMK A01 T02030025  RH  031%=      5-min Rain = 0
KCO1 170012Z 26011KT 20/02 A3008 RMK A01 T02030024  RH  031%=      5-min Rain = 0
KCO1 170013Z 26011KT 20/02 A3008 RMK A01 T02030024  RH  031%=      5-min Rain = 0
KCO1 170014Z 26012KT 20/03 A3008 RMK A01 T02030025  RH  031%=      5-min Rain = 0
KCO1 170015Z 26011KT 20/03 A3008 RMK A01 T02020025  RH  031%=      5-min Rain = 0
KCO1 170016Z 26012KT 20/03 A3008 RMK A01 T02020025  RH  031%=      5-min Rain = 0
KCO1 170017Z 26011KT 20/03 A3008 RMK A01 T02020025  RH  031%=      5-min Rain = 0
KCO1 170018Z 26012KT 20/03 A3008 RMK A01 T02020026  RH  031%=      5-min Rain = 0
KCO1 170019Z 26012KT 20/03 A3008 RMK A01 T02020025  RH  031%=      5-min Rain = 0
KCO1 170020Z 26012KT 20/03 A3008 RMK A01 T02020025  RH  031%=      5-min Rain = 0
KCO1 170021Z 26012KT 20/03 A3008 RMK A01 T02020025  RH  031%=      5-min Rain = 0
KCO1 170022Z 26013KT 20/03 A3008 RMK A01 T02010026  RH  031%=      5-min Rain = 0
KCO1 170023Z 26013KT 20/03 A3008 RMK A01 T02020026  RH  031%=      5-min Rain = 0
KCO1 170024Z 25013KT 20/03 A3008 RMK A01 T02020025  RH  031%=      5-min Rain = 0
KCO1 170025Z 26012KT 20/03 A3008 RMK A01 T02020026  RH  031%=      5-min Rain = 0
KCO1 170026Z 26011KT 20/03 A3008 RMK A01 T02020026  RH  031%=      5-min Rain = 0
KCO1 170027Z 25011KT 20/03 A3008 RMK A01 T02010026  RH  031%=      5-min Rain = 0
KCO1 170028Z 26011KT 20/03 A3008 RMK A01 T02000026  RH  031%=      5-min Rain = 0
KCO1 170029Z 26011KT 20/03 A3008 RMK A01 T02000026  RH  032%=      5-min Rain = 0
KCO1 170030Z 25012KT 20/03 A3008 RMK A01 T02000026  RH  032%=      5-min Rain = 0
KCO1 170031Z 25012KT 20/03 A3009 RMK A01 T02000026  RH  032%=      5-min Rain = 0
KCO1 170032Z 25012KT 20/03 A3009 RMK A01 T02000026  RH  032%=      5-min Rain = 0
KCO1 170033Z 25011KT 20/03 A3009 RMK A01 T02000026  RH  032%=      5-min Rain = 0
KCO1 170034Z 25009KT 20/03 A3009 RMK A01 T01990026  RH  032%=      5-min Rain = 0
KCO1 170035Z 25010KT 20/03 A3009 RMK A01 T01990027  RH  032%=      5-min Rain = 0
KCO1 170036Z 25009KT 20/03 A3009 RMK A01 T01980026  RH  032%=      5-min Rain = 0
KCO1 170037Z 26009KT 20/03 A3009 RMK A01 T01980027  RH  032%=      5-min Rain = 0
KCO1 170038Z 25009KT 20/03 A3009 RMK A01 T01970027  RH  032%=      5-min Rain = 0
KCO1 170039Z 25010KT 20/03 A3009 RMK A01 T01960027  RH  032%=      5-min Rain = 0
KCO1 170040Z 25009KT 20/03 A3009 RMK A01 T01960027  RH  033%=      5-min Rain = 0
KCO1 170041Z 25009KT 20/03 A3009 RMK A01 T01960027  RH  033%=      5-min Rain = 0
KCO1 170042Z 25009KT 20/03 A3009 RMK A01 T01950028  RH  033%=      5-min Rain = 0
KCO1 170043Z 25009KT 20/03 A3009 RMK A01 T01950028  RH  033%=      5-min Rain = 0
KCO1 170044Z 25009KT 19/03 A3009 RMK A01 T01940028  RH  033%=      5-min Rain = 0
KCO1 170045Z 25008KT 19/03 A3009 RMK A01 T01940028  RH  033%=      5-min Rain = 0
KCO1 170046Z 25009KT 19/03 A3009 RMK A01 T01930028  RH  033%=      5-min Rain = 0
KCO1 170047Z 25009KT 19/03 A3009 RMK A01 T01930027  RH  033%=      5-min Rain = 0
KCO1 170048Z 25009KT 19/03 A3009 RMK A01 T01930027  RH  033%=      5-min Rain = 0
KCO1 170049Z 25010KT 19/03 A3009 RMK A01 T01930027  RH  033%=      5-min Rain = 0
KCO1 170050Z 25009KT 19/03 A3009 RMK A01 T01930027  RH  033%=      5-min Rain = 0
KCO1 170051Z 25009KT 19/03 A3009 RMK A01 T01930027  RH  033%=      5-min Rain = 0
KCO1 170052Z 25009KT 19/03 A3009 RMK A01 T01920027  RH  033%=      5-min Rain = 0
KCO1 170053Z 24009KT 19/03 A3009 RMK A01 T01930027  RH  033%=      5-min Rain = 0
KCO1 170054Z 24009KT 19/03 A3009 RMK A01 T01920027  RH  033%=      5-min Rain = 0
KCO1 170055Z 24009KT 19/03 A3009 RMK A01 T01920027  RH  033%=      5-min Rain = 0
KCO1 170056Z 24009KT 19/03 A3009 RMK A01 T01910027  RH  033%=      5-min Rain = 0
KCO1 170057Z 24009KT 19/03 A3009 RMK A01 T01910026  RH  033%=      5-min Rain = 0
KCO1 170058Z 24009KT 19/03 A3009 RMK A01 T01920025  RH  033%=      5-min Rain = 0
KCO1 170059Z 24010KT 19/03 A3009 RMK A01 T01930025  RH  033%=      5-min Rain = 0
KCO1 170100Z 24011KT 19/03 A3009 RMK A01 T01930025  RH  033%=      5-min Rain = 0
KCO1 170101Z 24011KT 19/03 A3009 RMK A01 T01940025  RH  033%=      5-min Rain = 0
KCO1 170102Z 24011KT 19/03 A3009 RMK A01 T01940025  RH  032%=      5-min Rain = 0
KCO1 170103Z 24008KT 19/03 A3009 RMK A01 T01940025  RH  033%=      5-min Rain = 0
KCO1 170104Z 24007KT 19/03 A3009 RMK A01 T01940026  RH  033%=      5-min Rain = 0
KCO1 170105Z 23008KT 20/03 A3009 RMK A01 T01950027  RH  033%=      5-min Rain = 0
KCO1 170106Z 23007KT 19/03 A3009 RMK A01 T01930027  RH  033%=      5-min Rain = 0
KCO1 170107Z 24007KT 19/03 A301 RMK A01 T01920027  RH  033%=      5-min Rain = 0
KCO1 170108Z 23007KT 19/03 A301 RMK A01 T01910027  RH  034%=      5-min Rain = 0
KCO1 170109Z 24007KT 19/03 A301 RMK A01 T01900027  RH  034%=      5-min Rain = 0
KCO1 170110Z 24008KT 19/03 A301 RMK A01 T01900027  RH  034%=      5-min Rain = 0
KCO1 170111Z 24008KT 19/03 A301 RMK A01 T01890027  RH  034%=      5-min Rain = 0
KCO1 170112Z 24009KT 19/03 A301 RMK A01 T01890026  RH  034%=      5-min Rain = 0
KCO1 170113Z 24008KT 19/03 A301 RMK A01 T01890027  RH  034%=      5-min Rain = 0
KCO1 170114Z 24007KT 19/03 A301 RMK A01 T01890027  RH  034%=      5-min Rain = 0
KCO1 170115Z 24008KT 19/03 A301 RMK A01 T01880027  RH  034%=      5-min Rain = 0
KCO1 170116Z 24007KT 19/03 A301 RMK A01 T01880027  RH  034%=      5-min Rain = 0
KCO1 170117Z 24009KT 19/03 A301 RMK A01 T01880026  RH  034%=      5-min Rain = 0
KCO1 170118Z 24009KT 19/03 A301 RMK A01 T01890025  RH  034%=      5-min Rain = 0
KCO1 170119Z 25009KT 19/03 A301 RMK A01 T01900025  RH  033%=      5-min Rain = 0
KCO1 170120Z 25008KT 19/03 A301 RMK A01 T01910025  RH  033%=      5-min Rain = 0
KCO1 170121Z 25008KT 19/03 A301 RMK A01 T01910026  RH  033%=      5-min Rain = 0
KCO1 170122Z 25008KT 19/03 A301 RMK A01 T01900026  RH  034%=      5-min Rain = 0
KCO1 170123Z 25008KT 19/03 A3011 RMK A01 T01880026  RH  034%=      5-min Rain = 0
KCO1 170124Z 25008KT 19/03 A3011 RMK A01 T01880027  RH  034%=      5-min Rain = 0
KCO1 170125Z 25008KT 19/03 A301 RMK A01 T01860026  RH  034%=      5-min Rain = 0
KCO1 170126Z 25008KT 19/03 A301 RMK A01 T01850026  RH  035%=      5-min Rain = 0
KCO1 170127Z 25007KT 19/03 A301 RMK A01 T01850027  RH  035%=      5-min Rain = 0
KCO1 170128Z 25008KT 18/03 A301 RMK A01 T01840027  RH  035%=      5-min Rain = 0
KCO1 170129Z 25008KT 18/03 A301 RMK A01 T01830027  RH  035%=      5-min Rain = 0
KCO1 170130Z 25009KT 18/03 A3011 RMK A01 T01820027  RH  035%=      5-min Rain = 0
KCO1 170131Z 25009KT 18/03 A3011 RMK A01 T01820027  RH  036%=      5-min Rain = 0
KCO1 170132Z 25010KT 18/03 A3011 RMK A01 T01810026  RH  036%=      5-min Rain = 0
KCO1 170133Z 25009KT 18/03 A3011 RMK A01 T01810026  RH  036%=      5-min Rain = 0
KCO1 170134Z 25010KT 18/03 A3011 RMK A01 T01810026  RH  036%=      5-min Rain = 0
KCO1 170135Z 25010KT 18/03 A3011 RMK A01 T01810026  RH  036%=      5-min Rain = 0
KCO1 170136Z 25010KT 18/03 A3011 RMK A01 T01800026  RH  036%=      5-min Rain = 0
KCO1 170137Z 25010KT 18/03 A3011 RMK A01 T01800026  RH  036%=      5-min Rain = 0
KCO1 170138Z 25009KT 18/03 A3011 RMK A01 T01800026  RH  036%=      5-min Rain = 0
KCO1 170139Z 26010KT 18/03 A3011 RMK A01 T01800026  RH  036%=      5-min Rain = 0
KCO1 170140Z 26009KT 18/03 A3011 RMK A01 T01800026  RH  036%=      5-min Rain = 0
KCO1 170141Z 26008KT 18/03 A3011 RMK A01 T01800025  RH  035%=      5-min Rain = 0
KCO1 170142Z 26009KT 18/03 A3011 RMK A01 T01800025  RH  035%=      5-min Rain = 0
KCO1 170143Z 27009KT 18/02 A3011 RMK A01 T01800024  RH  035%=      5-min Rain = 0
KCO1 170144Z 27009KT 18/03 A3012 RMK A01 T01800026  RH  036%=      5-min Rain = 0
KCO1 170145Z 27008KT 18/03 A3012 RMK A01 T01790026  RH  036%=      5-min Rain = 0
KCO1 170146Z 27009KT 18/03 A3012 RMK A01 T01770026  RH  036%=      5-min Rain = 0
KCO1 170147Z 27008KT 18/03 A3012 RMK A01 T01750026  RH  037%=      5-min Rain = 0
KCO1 170148Z 27009KT 17/03 A3012 RMK A01 T01730026  RH  037%=      5-min Rain = 0
KCO1 170149Z 29009KT 17/03 A3012 RMK A01 T01710026  RH  038%=      5-min Rain = 0
KCO1 170150Z 30009KT 17/03 A3012 RMK A01 T01690026  RH  038%=      5-min Rain = 0
KCO1 170151Z 29010KT 17/03 A3012 RMK A01 T01670026  RH  039%=      5-min Rain = 0
KCO1 170152Z 28010KT 17/03 A3012 RMK A01 T01660026  RH  039%=      5-min Rain = 0
KCO1 170153Z 28010KT 17/03 A3012 RMK A01 T01650026  RH  039%=      5-min Rain = 0
KCO1 170154Z 28010KT 17/03 A3012 RMK A01 T01650026  RH  039%=      5-min Rain = 0
KCO1 170155Z 28010KT 17/03 A3012 RMK A01 T01660026  RH  039%=      5-min Rain = 0
KCO1 170156Z 28010KT 17/03 A3012 RMK A01 T01660026  RH  039%=      5-min Rain = 0
KCO1 170157Z 28010KT 17/03 A3012 RMK A01 T01670025  RH  039%=      5-min Rain = 0
KCO1 170158Z 28010KT 17/03 A3012 RMK A01 T01680026  RH  038%=      5-min Rain = 0
KCO1 170159Z 28009KT 17/03 A3012 RMK A01 T01680026  RH  038%=      5-min Rain = 0
KCO1 170200Z 27009KT 17/03 A3012 RMK A01 T01680026  RH  039%=      5-min Rain = 0
KCO1 170201Z 28009KT 17/03 A3012 RMK A01 T01670026  RH  039%=      5-min Rain = 0
KCO1 170202Z 28009KT 17/03 A3012 RMK A01 T01660026  RH  039%=      5-min Rain = 0
KCO1 170203Z 28009KT 17/03 A3012 RMK A01 T01650026  RH  039%=      5-min Rain = 0
KCO1 170204Z 28009KT 16/03 A3012 RMK A01 T01640026  RH  039%=      5-min Rain = 0
KCO1 170205Z 28010KT 16/03 A3012 RMK A01 T01640026  RH  039%=      5-min Rain = 0
KCO1 170206Z 27009KT 16/03 A3012 RMK A01 T01640026  RH  039%=      5-min Rain = 0
KCO1 170207Z 27009KT 16/03 A3012 RMK A01 T01640026  RH  040%=      5-min Rain = 0
KCO1 170208Z 28009KT 16/03 A3012 RMK A01 T01630026  RH  040%=      5-min Rain = 0
KCO1 170209Z 27009KT 16/03 A3012 RMK A01 T01620026  RH  040%=      5-min Rain = 0
KCO1 170210Z 27009KT 16/03 A3012 RMK A01 T01620026  RH  040%=      5-min Rain = 0
KCO1 170211Z 27009KT 16/03 A3012 RMK A01 T01610026  RH  040%=      5-min Rain = 0
KCO1 170212Z 27009KT 16/03 A3012 RMK A01 T01610026  RH  040%=      5-min Rain = 0
KCO1 170213Z 27009KT 16/03 A3012 RMK A01 T01600026  RH  041%=      5-min Rain = 0
KCO1 170214Z 27009KT 16/03 A3012 RMK A01 T01600026  RH  041%=      5-min Rain = 0
KCO1 170215Z 28008KT 16/03 A3012 RMK A01 T01590026  RH  041%=      5-min Rain = 0
KCO1 170216Z 28009KT 16/03 A3012 RMK A01 T01590025  RH  041%=      5-min Rain = 0
KCO1 170217Z 28009KT 16/03 A3012 RMK A01 T01590025  RH  040%=      5-min Rain = 0
KCO1 170218Z 28008KT 16/03 A3012 RMK A01 T01590025  RH  040%=      5-min Rain = 0
KCO1 170219Z 28008KT 16/03 A3012 RMK A01 T01590025  RH  040%=      5-min Rain = 0
KCO1 170220Z 28007KT 16/03 A3013 RMK A01 T01580025  RH  041%=      5-min Rain = 0
KCO1 170221Z 28007KT 16/02 A3013 RMK A01 T01570024  RH  041%=      5-min Rain = 0
KCO1 170222Z 28007KT 16/03 A3013 RMK A01 T01570025  RH  041%=      5-min Rain = 0
KCO1 170223Z 28007KT 16/03 A3013 RMK A01 T01560025  RH  041%=      5-min Rain = 0
KCO1 170224Z 28006KT 15/02 A3013 RMK A01 T01540024  RH  042%=      5-min Rain = 0
KCO1 170225Z 27006KT 15/02 A3013 RMK A01 T01530024  RH  042%=      5-min Rain = 0
KCO1 170226Z 27005KT 15/02 A3013 RMK A01 T01520024  RH  042%=      5-min Rain = 0
KCO1 170227Z 27006KT 15/02 A3013 RMK A01 T01520024  RH  042%=      5-min Rain = 0
KCO1 170228Z 26006KT 15/02 A3013 RMK A01 T01510024  RH  042%=      5-min Rain = 0
KCO1 170229Z 26006KT 15/02 A3013 RMK A01 T01510024  RH  042%=      5-min Rain = 0
KCO1 170230Z 25007KT 15/02 A3013 RMK A01 T01510024  RH  042%=      5-min Rain = 0
KCO1 170231Z 25007KT 15/02 A3013 RMK A01 T01510023  RH  042%=      5-min Rain = 0
KCO1 170232Z 25007KT 15/02 A3013 RMK A01 T01520024  RH  042%=      5-min Rain = 0
KCO1 170233Z 25007KT 15/02 A3013 RMK A01 T01510024  RH  042%=      5-min Rain = 0
KCO1 170234Z 25007KT 15/02 A3013 RMK A01 T01500024  RH  043%=      5-min Rain = 0
KCO1 170235Z 25007KT 15/02 A3013 RMK A01 T01490024  RH  043%=      5-min Rain = 0
KCO1 170236Z 24006KT 15/02 A3013 RMK A01 T01490024  RH  043%=      5-min Rain = 0
KCO1 170237Z 23005KT 15/02 A3013 RMK A01 T01490024  RH  043%=      5-min Rain = 0
KCO1 170238Z 21005KT 15/02 A3013 RMK A01 T01480024  RH  043%=      5-min Rain = 0
KCO1 170239Z 18005KT 15/02 A3013 RMK A01 T01480024  RH  043%=      5-min Rain = 0
KCO1 170240Z 18004KT 15/02 A3013 RMK A01 T01460024  RH  044%=      5-min Rain = 0
KCO1 170241Z 18003KT 14/02 A3013 RMK A01 T01430023  RH  044%=      5-min Rain = 0
KCO1 170242Z 18004KT 14/02 A3013 RMK A01 T01410023  RH  045%=      5-min Rain = 0
KCO1 170243Z 18005KT 14/02 A3013 RMK A01 T01390023  RH  045%=      5-min Rain = 0
KCO1 170244Z 18004KT 14/02 A3013 RMK A01 T01380023  RH  046%=      5-min Rain = 0
KCO1 170245Z 18005KT 14/02 A3013 RMK A01 T01380024  RH  046%=      5-min Rain = 0
KCO1 170246Z 19005KT 14/02 A3013 RMK A01 T01370024  RH  046%=      5-min Rain = 0
KCO1 170247Z 20005KT 14/02 A3013 RMK A01 T01360023  RH  046%=      5-min Rain = 0
KCO1 170248Z 22004KT 14/02 A3013 RMK A01 T01350023  RH  046%=      5-min Rain = 0
KCO1 170249Z 22004KT 14/02 A3013 RMK A01 T01350023  RH  047%=      5-min Rain = 0
KCO1 170250Z 22004KT 14/02 A3013 RMK A01 T01350023  RH  047%=      5-min Rain = 0
KCO1 170251Z 22005KT 13/02 A3014 RMK A01 T01340022  RH  047%=      5-min Rain = 0
KCO1 170252Z 24006KT 13/02 A3014 RMK A01 T01340022  RH  047%=      5-min Rain = 0
KCO1 170253Z 23006KT 13/02 A3014 RMK A01 T01340021  RH  046%=      5-min Rain = 0
KCO1 170254Z 23006KT 14/02 A3014 RMK A01 T01350022  RH  046%=      5-min Rain = 0
KCO1 170255Z 24007KT 14/02 A3014 RMK A01 T01380023  RH  046%=      5-min Rain = 0
KCO1 170256Z 24008KT 14/02 A3014 RMK A01 T01410022  RH  045%=      5-min Rain = 0
KCO1 170257Z 24006KT 15/02 A3014 RMK A01 T01450023  RH  044%=      5-min Rain = 0
KCO1 170258Z 24006KT 15/02 A3014 RMK A01 T01450022  RH  043%=      5-min Rain = 0
KCO1 170259Z 24006KT 15/02 A3014 RMK A01 T01460022  RH  043%=      5-min Rain = 0
KCO1 170300Z 24006KT 15/02 A3013 RMK A01 T01460021  RH  043%=      5-min Rain = 0
KCO1 170301Z 24005KT 15/02 A3014 RMK A01 T01460022  RH  043%=      5-min Rain = 0
KCO1 170302Z 26006KT 15/02 A3014 RMK A01 T01450022  RH  043%=      5-min Rain = 0
KCO1 170303Z 25005KT 15/02 A3014 RMK A01 T01450022  RH  043%=      5-min Rain = 0
KCO1 170304Z 24005KT 15/02 A3014 RMK A01 T01450021  RH  043%=      5-min Rain = 0
KCO1 170305Z 24005KT 14/02 A3014 RMK A01 T01440022  RH  044%=      5-min Rain = 0
KCO1 170306Z 25006KT 14/02 A3014 RMK A01 T01420022  RH  044%=      5-min Rain = 0
KCO1 170307Z 25007KT 14/02 A3014 RMK A01 T01400022  RH  045%=      5-min Rain = 0
KCO1 170308Z 26006KT 14/02 A3014 RMK A01 T01390022  RH  045%=      5-min Rain = 0
KCO1 170309Z 26006KT 14/02 A3014 RMK A01 T01380022  RH  046%=      5-min Rain = 0
KCO1 170310Z 26006KT 14/02 A3014 RMK A01 T01370022  RH  046%=      5-min Rain = 0
KCO1 170311Z 26007KT 14/02 A3014 RMK A01 T01370022  RH  046%=      5-min Rain = 0
KCO1 170312Z 26007KT 14/02 A3014 RMK A01 T01370023  RH  046%=      5-min Rain = 0
KCO1 170313Z 26007KT 14/02 A3014 RMK A01 T01370022  RH  046%=      5-min Rain = 0
KCO1 170314Z 26007KT 14/02 A3014 RMK A01 T01390022  RH  045%=      5-min Rain = 0
KCO1 170315Z 26008KT 14/02 A3014 RMK A01 T01410022  RH  045%=      5-min Rain = 0
KCO1 170316Z 26007KT 14/02 A3014 RMK A01 T01420021  RH  044%=      5-min Rain = 0
KCO1 170317Z 26008KT 14/02 A3014 RMK A01 T01430021  RH  044%=      5-min Rain = 0
KCO1 170318Z 26008KT 14/02 A3014 RMK A01 T01430021  RH  044%=      5-min Rain = 0
KCO1 170319Z 26008KT 14/02 A3014 RMK A01 T01440021  RH  043%=      5-min Rain = 0
KCO1 170320Z 27007KT 15/02 A3014 RMK A01 T01450021  RH  043%=      5-min Rain = 0
KCO1 170321Z 26007KT 14/02 A3014 RMK A01 T01440021  RH  043%=      5-min Rain = 0
KCO1 170322Z 27008KT 15/02 A3014 RMK A01 T01450021  RH  043%=      5-min Rain = 0
KCO1 170323Z 26008KT 14/02 A3014 RMK A01 T01440021  RH  044%=      5-min Rain = 0
KCO1 170324Z 27007KT 14/02 A3014 RMK A01 T01430022  RH  044%=      5-min Rain = 0
KCO1 170325Z 27007KT 14/02 A3014 RMK A01 T01410022  RH  045%=      5-min Rain = 0
KCO1 170326Z 27007KT 14/02 A3014 RMK A01 T01390021  RH  045%=      5-min Rain = 0
KCO1 170327Z 27007KT 14/02 A3014 RMK A01 T01380021  RH  045%=      5-min Rain = 0
KCO1 170328Z 27007KT 14/02 A3014 RMK A01 T01370021  RH  046%=      5-min Rain = 0
KCO1 170329Z 27007KT 14/02 A3014 RMK A01 T01360021  RH  046%=      5-min Rain = 0
KCO1 170330Z 27007KT 14/02 A3014 RMK A01 T01350021  RH  046%=      5-min Rain = 0
KCO1 170331Z 27007KT 14/02 A3014 RMK A01 T01350021  RH  046%=      5-min Rain = 0
KCO1 170332Z 27006KT 13/02 A3014 RMK A01 T01340022  RH  046%=      5-min Rain = 0
KCO1 170333Z 26006KT 13/02 A3014 RMK A01 T01340021  RH  046%=      5-min Rain = 0
KCO1 170334Z 26006KT 13/02 A3014 RMK A01 T01340022  RH  047%=      5-min Rain = 0
KCO1 170335Z 26006KT 13/02 A3014 RMK A01 T01330022  RH  047%=      5-min Rain = 0
KCO1 170336Z 26006KT 13/02 A3014 RMK A01 T01320023  RH  048%=      5-min Rain = 0
KCO1 170337Z 26006KT 13/02 A3015 RMK A01 T01310023  RH  048%=      5-min Rain = 0
KCO1 170338Z 26005KT 13/02 A3015 RMK A01 T01310022  RH  048%=      5-min Rain = 0
KCO1 170339Z 26005KT 13/02 A3015 RMK A01 T01310023  RH  048%=      5-min Rain = 0
KCO1 170340Z 26005KT 13/02 A3015 RMK A01 T01300023  RH  048%=      5-min Rain = 0
KCO1 170341Z 25004KT 13/02 A3015 RMK A01 T01290023  RH  048%=      5-min Rain = 0
KCO1 170342Z 25004KT 13/02 A3015 RMK A01 T01290023  RH  048%=      5-min Rain = 0
KCO1 170343Z 24005KT 13/02 A3015 RMK A01 T01290022  RH  048%=      5-min Rain = 0
KCO1 170344Z 24006KT 13/02 A3015 RMK A01 T01280022  RH  048%=      5-min Rain = 0
KCO1 170345Z 23005KT 13/02 A3015 RMK A01 T01280023  RH  049%=      5-min Rain = 0
KCO1 170346Z 23005KT 13/02 A3015 RMK A01 T01280024  RH  049%=      5-min Rain = 0
KCO1 170347Z 22005KT 13/02 A3015 RMK A01 T01280023  RH  049%=      5-min Rain = 0
KCO1 170348Z 20004KT 13/02 A3015 RMK A01 T01270024  RH  049%=      5-min Rain = 0
KCO1 170349Z 16005KT 12/02 A3015 RMK A01 T01240022  RH  050%=      5-min Rain = 0
KCO1 170350Z 16006KT 12/02 A3015 RMK A01 T01190021  RH  051%=      5-min Rain = 0
KCO1 170351Z 15004KT 12/02 A3015 RMK A01 T01150021  RH  053%=      5-min Rain = 0
KCO1 170352Z 16003KT 11/02 A3015 RMK A01 T01120022  RH  054%=      5-min Rain = 0
KCO1 170353Z 18005KT 11/02 A3015 RMK A01 T01100022  RH  055%=      5-min Rain = 0
KCO1 170354Z 18006KT 11/02 A3015 RMK A01 T01090023  RH  055%=      5-min Rain = 0
KCO1 170355Z 18007KT 11/02 A3015 RMK A01 T01090024  RH  056%=      5-min Rain = 0
KCO1 170356Z 18007KT 11/02 A3015 RMK A01 T01110024  RH  055%=      5-min Rain = 0
KCO1 170357Z 19008KT 11/03 A3015 RMK A01 T01140025  RH  054%=      5-min Rain = 0
KCO1 170358Z 19007KT 12/03 A3015 RMK A01 T01170025  RH  053%=      5-min Rain = 0
KCO1 170359Z 20006KT 12/03 A3015 RMK A01 T01180025  RH  053%=      5-min Rain = 0
KCO1 170400Z 20006KT 12/03 A3015 RMK A01 T01200025  RH  052%=      5-min Rain = 0
KCO1 170401Z 20006KT 12/03 A3015 RMK A01 T01200025  RH  052%=      5-min Rain = 0
KCO1 170402Z 20006KT 12/02 A3015 RMK A01 T01190024  RH  052%=      5-min Rain = 0
KCO1 170403Z 20006KT 12/02 A3015 RMK A01 T01190024  RH  052%=      5-min Rain = 0
KCO1 170404Z 20006KT 12/02 A3015 RMK A01 T01180024  RH  052%=      5-min Rain = 0
KCO1 170405Z 20006KT 12/02 A3015 RMK A01 T01180024  RH  052%=      5-min Rain = 0
KCO1 170406Z 20007KT 12/02 A3015 RMK A01 T01170023  RH  053%=      5-min Rain = 0
KCO1 170407Z 20007KT 12/02 A3015 RMK A01 T01150024  RH  053%=      5-min Rain = 0
KCO1 170408Z 20007KT 11/02 A3015 RMK A01 T01140024  RH  054%=      5-min Rain = 0
KCO1 170409Z 20008KT 11/02 A3015 RMK A01 T01140024  RH  054%=      5-min Rain = 0
KCO1 170410Z 20008KT 11/03 A3015 RMK A01 T01130025  RH  054%=      5-min Rain = 0
KCO1 170411Z 20007KT 11/03 A3015 RMK A01 T01130025  RH  055%=      5-min Rain = 0
KCO1 170412Z 21008KT 11/03 A3015 RMK A01 T01120025  RH  055%=      5-min Rain = 0
KCO1 170413Z 21008KT 11/03 A3015 RMK A01 T01110026  RH  056%=      5-min Rain = 0
KCO1 170414Z 21008KT 11/03 A3015 RMK A01 T01110026  RH  056%=      5-min Rain = 0
KCO1 170415Z 21008KT 11/03 A3015 RMK A01 T01120027  RH  056%=      5-min Rain = 0
KCO1 170416Z 21007KT 11/03 A3016 RMK A01 T01110026  RH  056%=      5-min Rain = 0
KCO1 170417Z 22006KT 11/03 A3016 RMK A01 T01090025  RH  056%=      5-min Rain = 0
KCO1 170418Z 22005KT 11/03 A3016 RMK A01 T01070025  RH  057%=      5-min Rain = 0
KCO1 170419Z 22005KT 11/03 A3016 RMK A01 T01050025  RH  057%=      5-min Rain = 0
KCO1 170420Z 22006KT 10/03 A3016 RMK A01 T01040025  RH  058%=      5-min Rain = 0
KCO1 170421Z 22007KT 10/03 A3016 RMK A01 T01030025  RH  058%=      5-min Rain = 0
KCO1 170422Z 22007KT 10/03 A3016 RMK A01 T01020025  RH  059%=      5-min Rain = 0
KCO1 170423Z 22006KT 10/02 A3016 RMK A01 T01010024  RH  059%=      5-min Rain = 0
KCO1 170424Z 23007KT 10/03 A3016 RMK A01 T01000025  RH  060%=      5-min Rain = 0
KCO1 170425Z 22007KT 10/03 A3016 RMK A01 T00990025  RH  060%=      5-min Rain = 0
KCO1 170426Z 23007KT 10/03 A3016 RMK A01 T00980025  RH  060%=      5-min Rain = 0
KCO1 170427Z 22007KT 10/03 A3016 RMK A01 T00980025  RH  061%=      5-min Rain = 0
KCO1 170428Z 22007KT 10/03 A3016 RMK A01 T00980026  RH  061%=      5-min Rain = 0
KCO1 170429Z 22006KT 10/03 A3016 RMK A01 T00970025  RH  061%=      5-min Rain = 0
KCO1 170430Z 22007KT 10/03 A3016 RMK A01 T00970025  RH  061%=      5-min Rain = 0
KCO1 170431Z 23007KT 10/03 A3016 RMK A01 T00970025  RH  061%=      5-min Rain = 0
KCO1 170432Z 22007KT 10/03 A3016 RMK A01 T00970025  RH  061%=      5-min Rain = 0
KCO1 170433Z 22007KT 10/03 A3016 RMK A01 T00970025  RH  061%=      5-min Rain = 0
KCO1 170434Z 22007KT 10/03 A3016 RMK A01 T00960025  RH  061%=      5-min Rain = 0
KCO1 170435Z 22007KT 10/03 A3016 RMK A01 T00960025  RH  061%=      5-min Rain = 0
KCO1 170436Z 22007KT 10/03 A3016 RMK A01 T00960025  RH  061%=      5-min Rain = 0
KCO1 170437Z 22007KT 10/03 A3016 RMK A01 T00960025  RH  061%=      5-min Rain = 0
KCO1 170438Z 22007KT 10/03 A3016 RMK A01 T00970025  RH  061%=      5-min Rain = 0
KCO1 170439Z 22007KT 10/03 A3016 RMK A01 T00970026  RH  061%=      5-min Rain = 0
KCO1 170440Z 22007KT 10/03 A3016 RMK A01 T00980026  RH  061%=      5-min Rain = 0
KCO1 170441Z 22007KT 10/03 A3016 RMK A01 T00980025  RH  061%=      5-min Rain = 0
KCO1 170442Z 21007KT 10/03 A3016 RMK A01 T00980025  RH  061%=      5-min Rain = 0
KCO1 170443Z 22008KT 10/03 A3016 RMK A01 T00980025  RH  060%=      5-min Rain = 0
KCO1 170444Z 21006KT 10/03 A3016 RMK A01 T00980025  RH  060%=      5-min Rain = 0
KCO1 170445Z 21006KT 10/03 A3016 RMK A01 T00970025  RH  061%=      5-min Rain = 0
KCO1 170446Z 22007KT 10/03 A3016 RMK A01 T00960025  RH  061%=      5-min Rain = 0
KCO1 170447Z 22007KT 10/03 A3016 RMK A01 T00960025  RH  061%=      5-min Rain = 0
KCO1 170448Z 23007KT 10/03 A3016 RMK A01 T00970025  RH  061%=      5-min Rain = 0
KCO1 170449Z 23007KT 10/03 A3016 RMK A01 T00980025  RH  061%=      5-min Rain = 0
KCO1 170450Z 23007KT 10/03 A3016 RMK A01 T00970025  RH  061%=      5-min Rain = 0
KCO1 170451Z 23007KT 10/03 A3016 RMK A01 T00960025  RH  061%=      5-min Rain = 0
KCO1 170452Z 23008KT 10/02 A3016 RMK A01 T00950024  RH  061%=      5-min Rain = 0
KCO1 170453Z 23008KT 10/03 A3016 RMK A01 T00950025  RH  062%=      5-min Rain = 0
KCO1 170454Z 23007KT 09/03 A3016 RMK A01 T00940025  RH  062%=      5-min Rain = 0
KCO1 170455Z 23007KT 09/03 A3016 RMK A01 T00940025  RH  062%=      5-min Rain = 0
KCO1 170456Z 23007KT 09/03 A3016 RMK A01 T00940025  RH  062%=      5-min Rain = 0
KCO1 170457Z 23008KT 10/03 A3016 RMK A01 T00950026  RH  062%=      5-min Rain = 0
KCO1 170458Z 23008KT 10/03 A3016 RMK A01 T00960026  RH  062%=      5-min Rain = 0
KCO1 170459Z 23008KT 10/03 A3016 RMK A01 T00960026  RH  062%=      5-min Rain = 0
KCO1 170500Z 23008KT 10/03 A3016 RMK A01 T00980027  RH  061%=      5-min Rain = 0
KCO1 170501Z 23009KT 10/03 A3017 RMK A01 T00990027  RH  061%=      5-min Rain = 0
KCO1 170502Z 23009KT 10/03 A3017 RMK A01 T01000027  RH  061%=      5-min Rain = 0
KCO1 170503Z 23009KT 10/03 A3017 RMK A01 T01000027  RH  060%=      5-min Rain = 0
KCO1 170504Z 23009KT 10/03 A3017 RMK A01 T01000027  RH  060%=      5-min Rain = 0
KCO1 170505Z 23009KT 10/03 A3017 RMK A01 T01010028  RH  061%=      5-min Rain = 0
KCO1 170506Z 23009KT 10/03 A3017 RMK A01 T01020030  RH  061%=      5-min Rain = 0
KCO1 170507Z 23010KT 10/03 A3017 RMK A01 T01040031  RH  061%=      5-min Rain = 0
KCO1 170508Z 23010KT 10/03 A3017 RMK A01 T01040031  RH  060%=      5-min Rain = 0
KCO1 170509Z 23009KT 11/03 A3017 RMK A01 T01060032  RH  060%=      5-min Rain = 0
KCO1 170510Z 23009KT 11/03 A3017 RMK A01 T01060032  RH  060%=      5-min Rain = 0
KCO1 170511Z 23009KT 11/03 A3017 RMK A01 T01060032  RH  060%=      5-min Rain = 0
KCO1 170512Z 23009KT 11/03 A3017 RMK A01 T01060032  RH  060%=      5-min Rain = 0
KCO1 170513Z 23009KT 11/03 A3017 RMK A01 T01060031  RH  060%=      5-min Rain = 0
KCO1 170514Z 23008KT 11/03 A3018 RMK A01 T01050031  RH  060%=      5-min Rain = 0
KCO1 170515Z 22008KT 10/03 A3018 RMK A01 T01040031  RH  060%=      5-min Rain = 0
KCO1 170516Z 22007KT 10/03 A3018 RMK A01 T01040031  RH  061%=      5-min Rain = 0
KCO1 170517Z 22008KT 10/03 A3018 RMK A01 T01030032  RH  061%=      5-min Rain = 0
KCO1 170518Z 21007KT 10/03 A3018 RMK A01 T01020032  RH  062%=      5-min Rain = 0
KCO1 170519Z 21007KT 10/03 A3018 RMK A01 T01010033  RH  063%=      5-min Rain = 0
KCO1 170520Z 21008KT 10/03 A3018 RMK A01 T01010033  RH  063%=      5-min Rain = 0
KCO1 170521Z 21007KT 10/03 A3018 RMK A01 T01000033  RH  063%=      5-min Rain = 0
KCO1 170522Z 20006KT 10/03 A3018 RMK A01 T00990032  RH  063%=      5-min Rain = 0
KCO1 170523Z 21008KT 10/03 A3018 RMK A01 T00980031  RH  063%=      5-min Rain = 0
KCO1 170524Z 20008KT 10/03 A3018 RMK A01 T00960031  RH  064%=      5-min Rain = 0
KCO1 170525Z 20007KT 10/03 A3018 RMK A01 T00950032  RH  065%=      5-min Rain = 0
KCO1 170526Z 20008KT 09/03 A3018 RMK A01 T00930032  RH  066%=      5-min Rain = 0
KCO1 170527Z 20009KT 09/03 A3018 RMK A01 T00910032  RH  066%=      5-min Rain = 0
KCO1 170528Z 20009KT 09/03 A3018 RMK A01 T00900033  RH  067%=      5-min Rain = 0
KCO1 170529Z 20009KT 09/03 A3018 RMK A01 T00890033  RH  068%=      5-min Rain = 0
KCO1 170530Z 20008KT 09/03 A3018 RMK A01 T00890034  RH  069%=      5-min Rain = 0
KCO1 170531Z 20008KT 09/03 A3018 RMK A01 T00880034  RH  069%=      5-min Rain = 0
KCO1 170532Z 20007KT 09/03 A3018 RMK A01 T00870034  RH  069%=      5-min Rain = 0
KCO1 170533Z 21007KT 09/03 A3018 RMK A01 T00860034  RH  070%=      5-min Rain = 0
KCO1 170534Z 21008KT 09/04 A3018 RMK A01 T00860035  RH  071%=      5-min Rain = 0
KCO1 170535Z 21009KT 09/04 A3018 RMK A01 T00860036  RH  071%=      5-min Rain = 0
KCO1 170536Z 21009KT 09/04 A3018 RMK A01 T00870036  RH  070%=      5-min Rain = 0
KCO1 170537Z 21008KT 09/04 A3018 RMK A01 T00880036  RH  070%=      5-min Rain = 0
KCO1 170538Z 21008KT 09/04 A3018 RMK A01 T00890037  RH  070%=      5-min Rain = 0
KCO1 170539Z 21008KT 09/04 A3018 RMK A01 T00890036  RH  069%=      5-min Rain = 0
KCO1 170540Z 21007KT 09/04 A3018 RMK A01 T00890036  RH  069%=      5-min Rain = 0
KCO1 170541Z 21007KT 09/04 A3018 RMK A01 T00890036  RH  069%=      5-min Rain = 0
KCO1 170542Z 22007KT 09/04 A3018 RMK A01 T00890036  RH  069%=      5-min Rain = 0
KCO1 170543Z 22007KT 09/04 A3018 RMK A01 T00900036  RH  069%=      5-min Rain = 0
KCO1 170544Z 22006KT 09/04 A3018 RMK A01 T00900036  RH  069%=      5-min Rain = 0
KCO1 170545Z 22006KT 09/04 A3018 RMK A01 T00900036  RH  069%=      5-min Rain = 0
KCO1 170546Z 22007KT 09/04 A3018 RMK A01 T00900036  RH  069%=      5-min Rain = 0
KCO1 170547Z 22007KT 09/04 A3018 RMK A01 T00900036  RH  069%=      5-min Rain = 0
KCO1 170548Z 22007KT 09/04 A3018 RMK A01 T00910036  RH  069%=      5-min Rain = 0
KCO1 170549Z 22007KT 09/04 A3018 RMK A01 T00910036  RH  068%=      5-min Rain = 0
KCO1 170550Z 22008KT 09/04 A3018 RMK A01 T00910036  RH  068%=      5-min Rain = 0
KCO1 170551Z 22008KT 09/04 A3018 RMK A01 T00910036  RH  068%=      5-min Rain = 0
KCO1 170552Z 22008KT 09/04 A3017 RMK A01 T00910036  RH  068%=      5-min Rain = 0
KCO1 170553Z 22008KT 09/04 A3017 RMK A01 T00910035  RH  068%=      5-min Rain = 0
KCO1 170554Z 22007KT 09/04 A3017 RMK A01 T00910035  RH  068%=      5-min Rain = 0
KCO1 170555Z 22008KT 09/04 A3017 RMK A01 T00910035  RH  068%=      5-min Rain = 0
KCO1 170556Z 22008KT 09/03 A3017 RMK A01 T00910034  RH  068%=      5-min Rain = 0
KCO1 170557Z 22007KT 09/03 A3017 RMK A01 T00910034  RH  068%=      5-min Rain = 0
KCO1 170558Z 21006KT 09/03 A3017 RMK A01 T00910034  RH  068%=      5-min Rain = 0
KCO1 170559Z 21006KT 09/03 A3017 RMK A01 T00900034  RH  068%=      5-min Rain = 0

Page generated in 0.1319 seconds.